Dirección General De Aeronáutica Civil

Dirección Meteorológica de Chile - Servicios Climáticos

Informe General de Control de Calidad de la Estación

Listado de niveles de control de calidad para algunos parámetros
Estación Catemu (320055)
Fecha de Revisión de los datos :

Elementos

Registros Niveles de Control Total
Nivel 0 Nivel 1 Nivel 2 Nivel 3 Errores Porcentaje
01 Temperatura del Aire Seco 89.969 0 . 0 . 0 . 0 . 0 0.00 %
02 Temperatura de Rocío 5.194 0 . 0 . 0 . 0 . 0 0.00 %
03 Humedad Relativa del Aire 82.378 0 . 0 . 0 . 0 . 0 0.00 %
04 Temperatura Máxima PM 6.176 0 . 0 . 295 4.78 % 0 . 295 4.78 %
05 Temperatura Mínima AM 6.147 0 . 0 . 142 2.31 % 0 . 142 2.31 %
06 Viento a 10 m. de Altura 233 0 . 0 . 0 . 0 . 0 0.00 %
07 Agua Caida, Acumulada 6 Horas 14.076 0 . 0 . 0 . 0 . 0 0.00 %
08 Presión Atm. a Nivel de Estación (QFE) 82.419 0 . 0 . 0 . 0 . 0 0.00 %
09 Presión Atm. a Nivel Medio del Mar (QFF) 4.499 0 . 0 . 0 . 0 . 0 0.00 %
10 Presión Atm. Estándar OACI (QNH) 4.499 0 . 0 . 0 . 0 . 0 0.00 %

Totales

295.590 . 0.0000 % . 0.0000 % . 0.1478 % . 0.0000 % 437 0.1478 %

Detalle de Errores Recientes

Fecha del Dato Descripción Información Error Fecha Ingreso
2001-12-10 00:00:00 Temperatura 26.7 del 10-12-2001 00:00, Mayor que la Máxima 23.6 10-12-2001 00:00 26.7 -- 23.6 2023-12-28 23:42:00
2001-12-29 00:00:00 Temperatura 28.4 del 28-12-2001 18:00, Mayor que la Máxima 26.2 29-12-2001 00:00 28.4 -- 26.2 2023-12-28 23:42:00
2002-02-18 00:00:00 Temperatura 29.4 del 17-02-2002 18:00, Mayor que la Máxima 26.0 18-02-2002 00:00 29.4 -- 26.0 2023-12-28 23:42:00
2002-02-20 00:00:00 Temperatura 27.0 del 19-02-2002 18:00, Mayor que la Máxima 26.9 20-02-2002 00:00 27.0 -- 26.9 2023-12-28 23:42:00
2002-05-24 00:00:00 Temperatura 15.4 del 23-05-2002 18:00, Mayor que la Máxima 15.0 24-05-2002 00:00 15.4 -- 15.0 2023-12-28 23:42:00
2002-09-03 00:00:00 Temperatura 27.2 del 03-09-2002 00:00, Mayor que la Máxima 26.2 03-09-2002 00:00 27.2 -- 26.2 2023-12-28 23:42:00
2002-10-05 00:00:00 Temperatura 22.3 del 04-10-2002 18:00, Mayor que la Máxima 22.2 05-10-2002 00:00 22.3 -- 22.2 2023-12-28 23:42:00
2002-10-10 00:00:00 Temperatura 25.4 del 09-10-2002 18:00, Mayor que la Máxima 24.8 10-10-2002 00:00 25.4 -- 24.8 2023-12-28 23:42:00
2002-10-23 00:00:00 Temperatura 25.4 del 22-10-2002 18:00, Mayor que la Máxima 23.2 23-10-2002 00:00 25.4 -- 23.2 2023-12-28 23:43:00
2003-02-22 00:00:00 Temperatura 28.8 del 21-02-2003 18:00, Mayor que la Máxima 28.2 22-02-2003 00:00 28.8 -- 28.2 2023-12-28 23:43:00
2003-08-24 00:00:00 Temperatura 15.1 del 23-08-2003 18:00, Mayor que la Máxima 14.8 24-08-2003 00:00 15.1 -- 14.8 2023-12-28 23:43:00
2003-10-31 00:00:00 Temperatura 29.2 del 30-10-2003 18:00, Mayor que la Máxima 28.8 31-10-2003 00:00 29.2 -- 28.8 2023-12-28 23:43:00
2003-11-28 00:00:00 Temperatura 25.8 del 27-11-2003 18:00, Mayor que la Máxima 25.2 28-11-2003 00:00 25.8 -- 25.2 2023-12-28 23:43:00
2004-05-16 00:00:00 Temperatura 23.2 del 15-05-2004 18:00, Mayor que la Máxima 19.4 16-05-2004 00:00 23.2 -- 19.4 2023-12-31 02:29:00
2004-06-14 00:00:00 Temperatura 19.6 del 14-06-2004 00:00, Mayor que la Máxima 14.8 14-06-2004 00:00 19.6 -- 14.8 2023-12-28 23:44:00
2004-07-25 00:00:00 Temperatura 16.0 del 24-07-2004 18:00, Mayor que la Máxima 15.9 25-07-2004 00:00 16.0 -- 15.9 2023-12-28 23:44:00
2004-09-27 00:00:00 Temperatura 22.6 del 26-09-2004 18:00, Mayor que la Máxima 22.4 27-09-2004 00:00 22.6 -- 22.4 2023-12-28 23:44:00
2004-12-12 00:00:00 Temperatura 29.3 del 11-12-2004 18:00, Mayor que la Máxima 29.0 12-12-2004 00:00 29.3 -- 29.0 2023-12-28 23:44:00
2005-05-29 00:00:00 Temperatura 16.6 del 28-05-2005 18:00, Mayor que la Máxima 16.5 29-05-2005 00:00 16.6 -- 16.5 2023-12-28 23:44:00
2002-02-27 12:00:00 Temperatura 11.4 del 27-02-2002 12:00, Menor que la Mínima 13.2 27-02-2002 12:00 11.4 -- 13.2 2023-12-28 23:42:00
2002-04-12 12:00:00 Temperatura 10.6 del 12-04-2002 12:00, Menor que la Mínima 11.8 12-04-2002 12:00 10.6 -- 11.8 2023-12-28 23:42:00
2002-08-18 12:00:00 Temperatura 9.2 del 18-08-2002 12:00, Menor que la Mínima 9.5 18-08-2002 12:00 9.2 -- 9.5 2023-12-28 23:42:00
2002-09-14 12:00:00 Temperatura 11.1 del 14-09-2002 12:00, Menor que la Mínima 11.8 14-09-2002 12:00 11.1 -- 11.8 2023-12-28 23:42:00
2003-06-03 12:00:00 Temperatura 2.0 del 03-06-2003 12:00, Menor que la Mínima 2.2 03-06-2003 12:00 2.0 -- 2.2 2023-12-28 23:43:00
2003-06-05 12:00:00 Temperatura 10.6 del 05-06-2003 12:00, Menor que la Mínima 10.7 05-06-2003 12:00 10.6 -- 10.7 2023-12-28 23:43:00
2003-06-11 12:00:00 Temperatura 11.1 del 11-06-2003 12:00, Menor que la Mínima 11.3 11-06-2003 12:00 11.1 -- 11.3 2023-12-28 23:43:00
2003-06-16 12:00:00 Temperatura 0.6 del 16-06-2003 12:00, Menor que la Mínima 1.4 16-06-2003 12:00 0.6 -- 1.4 2023-12-28 23:43:00
2003-08-30 12:00:00 Temperatura 8.8 del 30-08-2003 12:00, Menor que la Mínima 9.1 30-08-2003 12:00 8.8 -- 9.1 2023-12-28 23:43:00
2003-09-06 12:00:00 Temperatura 9.4 del 06-09-2003 12:00, Menor que la Mínima 9.6 06-09-2003 12:00 9.4 -- 9.6 2023-12-28 23:43:00
2003-11-11 12:00:00 Temperatura 14.4 del 11-11-2003 12:00, Menor que la Mínima 18.2 11-11-2003 12:00 14.4 -- 18.2 2023-12-28 23:43:00
2004-01-30 12:00:00 Temperatura 12.8 del 30-01-2004 12:00, Menor que la Mínima 13.1 30-01-2004 12:00 12.8 -- 13.1 2023-12-28 23:43:00
2004-05-05 12:00:00 Temperatura 2.8 del 05-05-2004 12:00, Menor que la Mínima 3.0 05-05-2004 12:00 2.8 -- 3.0 2023-12-28 23:44:00
2004-05-06 12:00:00 Temperatura 2.8 del 06-05-2004 12:00, Menor que la Mínima 3.8 06-05-2004 12:00 2.8 -- 3.8 2023-12-28 23:44:00
2004-05-15 12:00:00 Temperatura -0.2 del 15-05-2004 12:00, Menor que la Mínima -0.1 15-05-2004 12:00 -0.2 -- -0.1 2023-12-28 23:44:00
2004-06-28 12:00:00 Temperatura 0.6 del 28-06-2004 12:00, Menor que la Mínima 0.8 28-06-2004 12:00 0.6 -- 0.8 2023-12-28 23:44:00
2004-08-06 12:00:00 Temperatura -0.6 del 06-08-2004 12:00, Menor que la Mínima -0.5 06-08-2004 12:00 -0.6 -- -0.5 2023-12-28 23:44:00
2005-03-11 12:00:00 Temperatura 14.2 del 11-03-2005 12:00, Menor que la Mínima 19.0 11-03-2005 12:00 14.2 -- 19.0 2023-12-28 23:44:00
2005-05-01 12:00:00 Temperatura 7.2 del 01-05-2005 12:00, Menor que la Mínima 7.4 01-05-2005 12:00 7.2 -- 7.4 2023-12-28 23:44:00
2005-05-02 12:00:00 Temperatura 7.4 del 02-05-2005 12:00, Menor que la Mínima 8.1 02-05-2005 12:00 7.4 -- 8.1 2023-12-28 23:44:00
2005-05-08 12:00:00 Temperatura 10.7 del 08-05-2005 12:00, Menor que la Mínima 10.9 08-05-2005 12:00 10.7 -- 10.9 2023-12-28 23:44:00
2005-05-21 12:00:00 Temperatura -1.2 del 21-05-2005 12:00, Menor que la Mínima -1.1 21-05-2005 12:00 -1.2 -- -1.1 2023-12-28 23:44:00
2005-06-11 12:00:00 Temperatura 9.3 del 11-06-2005 12:00, Menor que la Mínima 9.4 11-06-2005 12:00 9.3 -- 9.4 2023-12-28 23:44:00
2005-06-15 12:00:00 Temperatura 8.0 del 15-06-2005 12:00, Menor que la Mínima 8.2 15-06-2005 12:00 8.0 -- 8.2 2023-12-28 23:44:00
2005-06-27 12:00:00 Temperatura 10.9 del 27-06-2005 12:00, Menor que la Mínima 11.0 27-06-2005 12:00 10.9 -- 11.0 2023-12-28 23:44:00
2005-08-03 12:00:00 Temperatura 11.2 del 03-08-2005 12:00, Menor que la Mínima 11.4 03-08-2005 12:00 11.2 -- 11.4 2023-12-28 23:45:00
2005-08-05 12:00:00 Temperatura 4.2 del 05-08-2005 12:00, Menor que la Mínima 4.6 05-08-2005 12:00 4.2 -- 4.6 2023-12-28 23:45:00
2005-08-15 12:00:00 Temperatura 10.3 del 15-08-2005 12:00, Menor que la Mínima 10.6 15-08-2005 12:00 10.3 -- 10.6 2023-12-28 23:45:00
2005-08-28 12:00:00 Temperatura 10.8 del 28-08-2005 12:00, Menor que la Mínima 11.0 28-08-2005 12:00 10.8 -- 11.0 2023-12-28 23:45:00
2005-09-10 12:00:00 Temperatura 6.8 del 10-09-2005 12:00, Menor que la Mínima 7.1 10-09-2005 12:00 6.8 -- 7.1 2023-12-28 23:45:00
2005-10-02 12:00:00 Temperatura 9.2 del 02-10-2005 12:00, Menor que la Mínima 9.4 02-10-2005 12:00 9.2 -- 9.4 2023-12-28 23:45:00
2005-11-10 12:00:00 Temperatura 6.2 del 10-11-2005 12:00, Menor que la Mínima 9.2 10-11-2005 12:00 6.2 -- 9.2 2023-12-28 23:45:00
Total de Errores Recientes 51

Detalle de Errores Encontrados

Nivel Fecha del Dato Descripción Información Error Fecha Ingreso
2 2001-12-10 00:00:00 Temperatura 26.7 del 10-12-2001 00:00, Mayor que la Máxima 23.6 10-12-2001 00:00 26.7 -- 23.6 2023-12-28 23:42:00
2 2001-12-29 00:00:00 Temperatura 28.4 del 28-12-2001 18:00, Mayor que la Máxima 26.2 29-12-2001 00:00 28.4 -- 26.2 2023-12-28 23:42:00
2 2002-02-18 00:00:00 Temperatura 29.4 del 17-02-2002 18:00, Mayor que la Máxima 26.0 18-02-2002 00:00 29.4 -- 26.0 2023-12-28 23:42:00
2 2002-02-20 00:00:00 Temperatura 27.0 del 19-02-2002 18:00, Mayor que la Máxima 26.9 20-02-2002 00:00 27.0 -- 26.9 2023-12-28 23:42:00
2 2002-05-24 00:00:00 Temperatura 15.4 del 23-05-2002 18:00, Mayor que la Máxima 15.0 24-05-2002 00:00 15.4 -- 15.0 2023-12-28 23:42:00
2 2002-09-03 00:00:00 Temperatura 27.2 del 03-09-2002 00:00, Mayor que la Máxima 26.2 03-09-2002 00:00 27.2 -- 26.2 2023-12-28 23:42:00
2 2002-10-05 00:00:00 Temperatura 22.3 del 04-10-2002 18:00, Mayor que la Máxima 22.2 05-10-2002 00:00 22.3 -- 22.2 2023-12-28 23:42:00
2 2002-10-10 00:00:00 Temperatura 25.4 del 09-10-2002 18:00, Mayor que la Máxima 24.8 10-10-2002 00:00 25.4 -- 24.8 2023-12-28 23:42:00
2 2002-10-23 00:00:00 Temperatura 25.4 del 22-10-2002 18:00, Mayor que la Máxima 23.2 23-10-2002 00:00 25.4 -- 23.2 2023-12-28 23:43:00
2 2003-02-22 00:00:00 Temperatura 28.8 del 21-02-2003 18:00, Mayor que la Máxima 28.2 22-02-2003 00:00 28.8 -- 28.2 2023-12-28 23:43:00
2 2003-08-24 00:00:00 Temperatura 15.1 del 23-08-2003 18:00, Mayor que la Máxima 14.8 24-08-2003 00:00 15.1 -- 14.8 2023-12-28 23:43:00
2 2003-10-31 00:00:00 Temperatura 29.2 del 30-10-2003 18:00, Mayor que la Máxima 28.8 31-10-2003 00:00 29.2 -- 28.8 2023-12-28 23:43:00
2 2003-11-28 00:00:00 Temperatura 25.8 del 27-11-2003 18:00, Mayor que la Máxima 25.2 28-11-2003 00:00 25.8 -- 25.2 2023-12-28 23:43:00
2 2004-05-16 00:00:00 Temperatura 23.2 del 15-05-2004 18:00, Mayor que la Máxima 19.4 16-05-2004 00:00 23.2 -- 19.4 2023-12-31 02:29:00
2 2004-06-14 00:00:00 Temperatura 19.6 del 14-06-2004 00:00, Mayor que la Máxima 14.8 14-06-2004 00:00 19.6 -- 14.8 2023-12-28 23:44:00
2 2004-07-25 00:00:00 Temperatura 16.0 del 24-07-2004 18:00, Mayor que la Máxima 15.9 25-07-2004 00:00 16.0 -- 15.9 2023-12-28 23:44:00
2 2004-09-27 00:00:00 Temperatura 22.6 del 26-09-2004 18:00, Mayor que la Máxima 22.4 27-09-2004 00:00 22.6 -- 22.4 2023-12-28 23:44:00
2 2004-12-12 00:00:00 Temperatura 29.3 del 11-12-2004 18:00, Mayor que la Máxima 29.0 12-12-2004 00:00 29.3 -- 29.0 2023-12-28 23:44:00
2 2005-05-29 00:00:00 Temperatura 16.6 del 28-05-2005 18:00, Mayor que la Máxima 16.5 29-05-2005 00:00 16.6 -- 16.5 2023-12-28 23:44:00
2 2010-01-01 00:00:00 Temperatura 27.5 del 31-12-2009 18:00, Mayor que la Máxima 14.8 01-01-2010 00:00 27.5 -- 14.8 2021-03-23 15:03:00
2 2013-01-02 00:00:00 Temperatura 29.6 del 01-01-2013 14:00, Mayor que la Máxima 29.4 02-01-2013 00:00 29.6 -- 29.4 2014-09-12 14:18:00
2 2013-01-02 00:00:00 Temperatura 29.6 del 01-01-2013 14:00, Mayor que la Máxima 29.4 02-01-2013 00:00 29.6 -- 29.4 2014-09-12 14:18:00
2 2013-01-03 00:00:00 Temperatura 27.1 del 02-01-2013 15:00, Mayor que la Máxima 26.8 03-01-2013 00:00 27.1 -- 26.8 2014-09-12 14:50:00
2 2013-01-04 00:00:00 Temperatura 21.7 del 03-01-2013 14:00, Mayor que la Máxima 21.5 04-01-2013 00:00 21.7 -- 21.5 2014-09-12 15:26:00
2 2013-01-05 00:00:00 Temperatura 27.4 del 04-01-2013 16:00, Mayor que la Máxima 27.0 05-01-2013 00:00 27.4 -- 27.0 2014-09-12 15:33:00
2 2013-01-06 00:00:00 Temperatura 28.9 del 05-01-2013 15:00, Mayor que la Máxima 28.6 06-01-2013 00:00 28.9 -- 28.6 2014-09-12 17:40:00
2 2013-01-07 00:00:00 Temperatura 29.5 del 06-01-2013 14:00, Mayor que la Máxima 28.6 07-01-2013 00:00 29.5 -- 28.6 2014-09-12 17:45:00
2 2013-01-08 00:00:00 Temperatura 32.3 del 07-01-2013 15:00, Mayor que la Máxima 31.6 08-01-2013 00:00 32.3 -- 31.6 2014-09-12 17:52:00
2 2013-01-09 00:00:00 Temperatura 34.2 del 08-01-2013 15:00, Mayor que la Máxima 33.4 09-01-2013 00:00 34.2 -- 33.4 2014-09-12 17:52:00
2 2013-01-10 00:00:00 Temperatura 34.8 del 09-01-2013 15:00, Mayor que la Máxima 34.7 10-01-2013 00:00 34.8 -- 34.7 2014-09-12 17:52:00
2 2013-01-11 00:00:00 Temperatura 29.7 del 10-01-2013 16:00, Mayor que la Máxima 29.3 11-01-2013 00:00 29.7 -- 29.3 2014-09-12 18:35:00
2 2013-01-12 00:00:00 Temperatura 29.9 del 11-01-2013 14:00, Mayor que la Máxima 29.5 12-01-2013 00:00 29.9 -- 29.5 2014-09-12 18:35:00
2 2013-01-14 00:00:00 Temperatura 29.7 del 13-01-2013 15:00, Mayor que la Máxima 28.9 14-01-2013 00:00 29.7 -- 28.9 2014-09-12 18:40:00
2 2013-01-15 00:00:00 Temperatura 28.7 del 14-01-2013 16:00, Mayor que la Máxima 28.1 15-01-2013 00:00 28.7 -- 28.1 2014-09-12 18:53:00
2 2013-01-16 00:00:00 Temperatura 28.6 del 15-01-2013 15:00, Mayor que la Máxima 28.0 16-01-2013 00:00 28.6 -- 28.0 2014-09-12 18:55:00
2 2013-01-17 00:00:00 Temperatura 27.6 del 16-01-2013 15:00, Mayor que la Máxima 27.1 17-01-2013 00:00 27.6 -- 27.1 2014-09-12 18:58:00
2 2013-01-18 00:00:00 Temperatura 27.5 del 17-01-2013 15:00, Mayor que la Máxima 27.0 18-01-2013 00:00 27.5 -- 27.0 2014-09-12 19:07:00
2 2013-01-19 00:00:00 Temperatura 29.3 del 18-01-2013 16:00, Mayor que la Máxima 28.9 19-01-2013 00:00 29.3 -- 28.9 2014-09-12 19:09:00
2 2013-01-20 00:00:00 Temperatura 27.2 del 19-01-2013 16:00, Mayor que la Máxima 26.7 20-01-2013 00:00 27.2 -- 26.7 2014-09-12 19:13:00
2 2013-01-22 00:00:00 Temperatura 27.0 del 21-01-2013 17:00, Mayor que la Máxima 26.9 22-01-2013 00:00 27.0 -- 26.9 2014-09-15 14:22:00
2 2013-01-24 00:00:00 Temperatura 26.3 del 23-01-2013 16:00, Mayor que la Máxima 26.0 24-01-2013 00:00 26.3 -- 26.0 2014-09-15 14:34:00
2 2013-01-25 00:00:00 Temperatura 27.0 del 24-01-2013 15:00, Mayor que la Máxima 26.5 25-01-2013 00:00 27.0 -- 26.5 2014-09-15 14:51:00
2 2013-01-26 00:00:00 Temperatura 29.9 del 25-01-2013 14:00, Mayor que la Máxima 29.8 26-01-2013 00:00 29.9 -- 29.8 2014-09-15 14:56:00
2 2013-01-27 00:00:00 Temperatura 31.5 del 26-01-2013 14:00, Mayor que la Máxima 31.0 27-01-2013 00:00 31.5 -- 31.0 2014-09-15 15:02:00
2 2013-01-28 00:00:00 Temperatura 31.7 del 27-01-2013 16:00, Mayor que la Máxima 31.0 28-01-2013 00:00 31.7 -- 31.0 2014-09-15 15:04:00
2 2013-01-29 00:00:00 Temperatura 27.6 del 28-01-2013 16:00, Mayor que la Máxima 26.8 29-01-2013 00:00 27.6 -- 26.8 2014-09-15 15:50:00
2 2013-01-30 00:00:00 Temperatura 32.7 del 29-01-2013 14:00, Mayor que la Máxima 32.3 30-01-2013 00:00 32.7 -- 32.3 2014-09-15 15:52:00
2 2013-01-31 00:00:00 Temperatura 27.6 del 30-01-2013 15:00, Mayor que la Máxima 27.3 31-01-2013 00:00 27.6 -- 27.3 2014-09-15 15:55:00
2 2013-02-01 00:00:00 Temperatura 25.2 del 31-01-2013 16:00, Mayor que la Máxima 24.8 01-02-2013 00:00 25.2 -- 24.8 2014-09-15 15:58:00
2 2013-02-02 00:00:00 Temperatura 28.2 del 01-02-2013 15:00, Mayor que la Máxima 27.8 02-02-2013 00:00 28.2 -- 27.8 2014-09-15 16:03:00
2 2013-02-03 00:00:00 Temperatura 34.9 del 02-02-2013 15:00, Mayor que la Máxima 34.0 03-02-2013 00:00 34.9 -- 34.0 2014-09-15 16:07:00
2 2013-02-04 00:00:00 Temperatura 34.2 del 03-02-2013 14:00, Mayor que la Máxima 33.7 04-02-2013 00:00 34.2 -- 33.7 2014-09-15 16:09:00
2 2013-02-06 00:00:00 Temperatura 28.9 del 05-02-2013 15:00, Mayor que la Máxima 28.4 06-02-2013 00:00 28.9 -- 28.4 2014-09-15 16:13:00
2 2013-02-07 00:00:00 Temperatura 31.6 del 06-02-2013 16:00, Mayor que la Máxima 31.4 07-02-2013 00:00 31.6 -- 31.4 2014-09-15 16:17:00
2 2013-02-08 00:00:00 Temperatura 32.3 del 07-02-2013 16:00, Mayor que la Máxima 31.6 08-02-2013 00:00 32.3 -- 31.6 2014-09-15 16:22:00
2 2013-02-09 00:00:00 Temperatura 30.4 del 08-02-2013 16:00, Mayor que la Máxima 29.8 09-02-2013 00:00 30.4 -- 29.8 2014-09-15 16:25:00
2 2013-02-10 00:00:00 Temperatura 26.3 del 09-02-2013 15:00, Mayor que la Máxima 25.6 10-02-2013 00:00 26.3 -- 25.6 2014-09-15 16:28:00
2 2013-02-11 00:00:00 Temperatura 29.2 del 10-02-2013 14:00, Mayor que la Máxima 28.6 11-02-2013 00:00 29.2 -- 28.6 2014-09-15 18:05:00
2 2013-02-12 00:00:00 Temperatura 32.9 del 11-02-2013 15:00, Mayor que la Máxima 32.0 12-02-2013 00:00 32.9 -- 32.0 2014-09-15 18:07:00
2 2013-02-13 00:00:00 Temperatura 32.3 del 12-02-2013 15:00, Mayor que la Máxima 31.6 13-02-2013 00:00 32.3 -- 31.6 2014-09-15 18:09:00
2 2013-02-14 00:00:00 Temperatura 32.8 del 13-02-2013 16:00, Mayor que la Máxima 32.0 14-02-2013 00:00 32.8 -- 32.0 2014-09-15 18:26:00
2 2013-02-15 00:00:00 Temperatura 35.1 del 14-02-2013 15:00, Mayor que la Máxima 34.6 15-02-2013 00:00 35.1 -- 34.6 2014-09-15 18:27:00
2 2013-02-16 00:00:00 Temperatura 34.3 del 15-02-2013 14:00, Mayor que la Máxima 33.6 16-02-2013 00:00 34.3 -- 33.6 2014-09-15 18:29:00
2 2013-02-17 00:00:00 Temperatura 29.2 del 16-02-2013 15:00, Mayor que la Máxima 29.0 17-02-2013 00:00 29.2 -- 29.0 2014-09-15 18:32:00
2 2013-02-18 00:00:00 Temperatura 28.2 del 17-02-2013 15:00, Mayor que la Máxima 27.6 18-02-2013 00:00 28.2 -- 27.6 2014-09-15 18:40:00
2 2013-02-19 00:00:00 Temperatura 27.9 del 18-02-2013 15:00, Mayor que la Máxima 27.3 19-02-2013 00:00 27.9 -- 27.3 2014-09-15 18:41:00
2 2013-02-20 00:00:00 Temperatura 29.0 del 19-02-2013 15:00, Mayor que la Máxima 28.6 20-02-2013 00:00 29.0 -- 28.6 2014-09-15 18:43:00
2 2013-02-21 00:00:00 Temperatura 30.7 del 20-02-2013 15:00, Mayor que la Máxima 30.0 21-02-2013 00:00 30.7 -- 30.0 2014-09-15 18:45:00
2 2013-02-22 00:00:00 Temperatura 35.2 del 21-02-2013 15:00, Mayor que la Máxima 34.3 22-02-2013 00:00 35.2 -- 34.3 2014-09-15 19:54:00
2 2013-02-23 00:00:00 Temperatura 32.1 del 22-02-2013 13:00, Mayor que la Máxima 31.6 23-02-2013 00:00 32.1 -- 31.6 2014-09-15 19:56:00
2 2013-02-24 00:00:00 Temperatura 31.3 del 23-02-2013 15:00, Mayor que la Máxima 30.5 24-02-2013 00:00 31.3 -- 30.5 2014-09-15 19:58:00
2 2013-02-25 00:00:00 Temperatura 33.9 del 24-02-2013 16:00, Mayor que la Máxima 33.2 25-02-2013 00:00 33.9 -- 33.2 2014-09-15 19:59:00
2 2013-02-26 00:00:00 Temperatura 34.1 del 25-02-2013 15:00, Mayor que la Máxima 33.4 26-02-2013 00:00 34.1 -- 33.4 2014-09-15 20:06:00
2 2013-02-27 00:00:00 Temperatura 26.8 del 26-02-2013 16:00, Mayor que la Máxima 26.6 27-02-2013 00:00 26.8 -- 26.6 2014-09-15 20:08:00
2 2013-02-28 00:00:00 Temperatura 26.8 del 27-02-2013 15:00, Mayor que la Máxima 26.6 28-02-2013 00:00 26.8 -- 26.6 2014-09-15 20:10:00
2 2013-03-01 00:00:00 Temperatura 29.4 del 28-02-2013 15:00, Mayor que la Máxima 28.7 01-03-2013 00:00 29.4 -- 28.7 2014-09-17 12:58:00
2 2013-03-02 00:00:00 Temperatura 26.9 del 01-03-2013 15:00, Mayor que la Máxima 26.1 02-03-2013 00:00 26.9 -- 26.1 2014-09-17 13:01:00
2 2013-03-03 00:00:00 Temperatura 31.7 del 02-03-2013 15:00, Mayor que la Máxima 30.8 03-03-2013 00:00 31.7 -- 30.8 2014-09-17 13:05:00
2 2013-03-04 00:00:00 Temperatura 30.5 del 03-03-2013 14:00, Mayor que la Máxima 30.0 04-03-2013 00:00 30.5 -- 30.0 2014-09-17 13:07:00
2 2013-03-05 00:00:00 Temperatura 31.6 del 04-03-2013 15:00, Mayor que la Máxima 31.0 05-03-2013 00:00 31.6 -- 31.0 2014-09-17 13:12:00
2 2013-03-07 00:00:00 Temperatura 30.0 del 06-03-2013 16:00, Mayor que la Máxima 29.3 07-03-2013 00:00 30.0 -- 29.3 2014-09-17 13:22:00
2 2013-03-08 00:00:00 Temperatura 26.0 del 07-03-2013 15:00, Mayor que la Máxima 25.8 08-03-2013 00:00 26.0 -- 25.8 2014-09-17 13:25:00
2 2013-03-09 00:00:00 Temperatura 31.0 del 08-03-2013 15:00, Mayor que la Máxima 30.2 09-03-2013 00:00 31.0 -- 30.2 2014-09-17 13:27:00
2 2013-03-10 00:00:00 Temperatura 33.0 del 09-03-2013 15:00, Mayor que la Máxima 32.0 10-03-2013 00:00 33.0 -- 32.0 2014-09-17 13:29:00
2 2013-03-11 00:00:00 Temperatura 33.5 del 10-03-2013 14:00, Mayor que la Máxima 32.8 11-03-2013 00:00 33.5 -- 32.8 2014-09-17 13:31:00
2 2013-03-12 00:00:00 Temperatura 28.8 del 11-03-2013 13:00, Mayor que la Máxima 28.2 12-03-2013 00:00 28.8 -- 28.2 2014-09-17 13:50:00
2 2013-03-13 00:00:00 Temperatura 28.8 del 12-03-2013 13:00, Mayor que la Máxima 28.3 13-03-2013 00:00 28.8 -- 28.3 2014-09-17 13:52:00
2 2013-03-14 00:00:00 Temperatura 29.0 del 13-03-2013 13:00, Mayor que la Máxima 28.4 14-03-2013 00:00 29.0 -- 28.4 2014-09-17 13:56:00
2 2013-03-15 00:00:00 Temperatura 28.9 del 14-03-2013 14:00, Mayor que la Máxima 28.2 15-03-2013 00:00 28.9 -- 28.2 2014-09-17 14:23:00
2 2013-03-17 00:00:00 Temperatura 27.4 del 16-03-2013 14:00, Mayor que la Máxima 27.3 17-03-2013 00:00 27.4 -- 27.3 2014-09-22 12:59:00
2 2013-03-18 00:00:00 Temperatura 29.3 del 17-03-2013 14:00, Mayor que la Máxima 29.0 18-03-2013 00:00 29.3 -- 29.0 2014-09-22 13:01:00
2 2013-03-19 00:00:00 Temperatura 24.0 del 18-03-2013 13:00, Mayor que la Máxima 23.8 19-03-2013 00:00 24.0 -- 23.8 2014-09-22 13:07:00
2 2013-03-21 00:00:00 Temperatura 27.7 del 20-03-2013 16:00, Mayor que la Máxima 26.0 21-03-2013 00:00 27.7 -- 26.0 2014-09-22 13:13:00
2 2013-03-22 00:00:00 Temperatura 30.1 del 21-03-2013 15:00, Mayor que la Máxima 29.5 22-03-2013 00:00 30.1 -- 29.5 2014-09-22 13:15:00
2 2013-03-23 00:00:00 Temperatura 28.2 del 22-03-2013 14:00, Mayor que la Máxima 27.4 23-03-2013 00:00 28.2 -- 27.4 2014-09-22 18:27:00
2 2013-03-26 00:00:00 Temperatura 33.0 del 25-03-2013 15:00, Mayor que la Máxima 32.1 26-03-2013 00:00 33.0 -- 32.1 2014-09-22 18:47:00
2 2013-03-27 00:00:00 Temperatura 33.0 del 26-03-2013 15:00, Mayor que la Máxima 32.6 27-03-2013 00:00 33.0 -- 32.6 2014-09-22 18:54:00
2 2013-03-28 00:00:00 Temperatura 30.7 del 27-03-2013 14:00, Mayor que la Máxima 29.8 28-03-2013 00:00 30.7 -- 29.8 2014-09-22 18:57:00
2 2013-03-29 00:00:00 Temperatura 23.1 del 28-03-2013 14:00, Mayor que la Máxima 22.8 29-03-2013 00:00 23.1 -- 22.8 2014-09-22 19:01:00
2 2013-04-02 00:00:00 Temperatura 21.1 del 01-04-2013 15:00, Mayor que la Máxima 20.4 02-04-2013 00:00 21.1 -- 20.4 2014-09-22 13:38:00
2 2013-04-03 00:00:00 Temperatura 26.6 del 02-04-2013 16:00, Mayor que la Máxima 25.9 03-04-2013 00:00 26.6 -- 25.9 2014-09-22 13:41:00
2 2013-04-04 00:00:00 Temperatura 26.3 del 03-04-2013 14:00, Mayor que la Máxima 25.2 04-04-2013 00:00 26.3 -- 25.2 2014-09-22 14:34:00
2 2013-04-05 00:00:00 Temperatura 23.4 del 04-04-2013 16:00, Mayor que la Máxima 23.0 05-04-2013 00:00 23.4 -- 23.0 2014-09-22 14:37:00
2 2013-04-06 00:00:00 Temperatura 25.7 del 05-04-2013 15:00, Mayor que la Máxima 25.2 06-04-2013 00:00 25.7 -- 25.2 2014-09-22 14:40:00
2 2013-04-07 00:00:00 Temperatura 27.7 del 06-04-2013 15:00, Mayor que la Máxima 27.0 07-04-2013 00:00 27.7 -- 27.0 2014-09-22 14:42:00
2 2013-04-08 00:00:00 Temperatura 29.5 del 07-04-2013 16:00, Mayor que la Máxima 29.0 08-04-2013 00:00 29.5 -- 29.0 2014-09-22 14:45:00
2 2013-04-09 00:00:00 Temperatura 28.7 del 08-04-2013 14:00, Mayor que la Máxima 28.3 09-04-2013 00:00 28.7 -- 28.3 2014-09-22 14:47:00
2 2013-04-11 00:00:00 Temperatura 24.0 del 10-04-2013 15:00, Mayor que la Máxima 23.4 11-04-2013 00:00 24.0 -- 23.4 2014-09-22 14:53:00
2 2013-04-12 00:00:00 Temperatura 22.9 del 11-04-2013 16:00, Mayor que la Máxima 22.3 12-04-2013 00:00 22.9 -- 22.3 2014-09-22 14:56:00
2 2013-04-13 00:00:00 Temperatura 26.7 del 12-04-2013 15:00, Mayor que la Máxima 25.9 13-04-2013 00:00 26.7 -- 25.9 2014-09-22 15:00:00
2 2013-04-14 00:00:00 Temperatura 29.6 del 13-04-2013 15:00, Mayor que la Máxima 29.2 14-04-2013 00:00 29.6 -- 29.2 2014-09-22 15:01:00
2 2013-04-15 00:00:00 Temperatura 32.7 del 14-04-2013 14:00, Mayor que la Máxima 32.2 15-04-2013 00:00 32.7 -- 32.2 2014-09-22 15:03:00
2 2013-04-16 00:00:00 Temperatura 29.8 del 15-04-2013 14:00, Mayor que la Máxima 29.6 16-04-2013 00:00 29.8 -- 29.6 2014-09-22 15:10:00
2 2013-04-18 00:00:00 Temperatura 29.1 del 17-04-2013 14:00, Mayor que la Máxima 28.6 18-04-2013 00:00 29.1 -- 28.6 2014-09-22 16:01:00
2 2013-04-19 00:00:00 Temperatura 23.7 del 18-04-2013 16:00, Mayor que la Máxima 23.4 19-04-2013 00:00 23.7 -- 23.4 2014-09-22 16:05:00
2 2013-04-20 00:00:00 Temperatura 19.8 del 19-04-2013 15:00, Mayor que la Máxima 19.6 20-04-2013 00:00 19.8 -- 19.6 2014-09-22 17:49:00
2 2013-04-21 00:00:00 Temperatura 23.2 del 20-04-2013 15:00, Mayor que la Máxima 22.6 21-04-2013 00:00 23.2 -- 22.6 2014-09-22 17:52:00
2 2013-04-22 00:00:00 Temperatura 25.9 del 21-04-2013 15:00, Mayor que la Máxima 25.4 22-04-2013 00:00 25.9 -- 25.4 2014-09-22 17:54:00
2 2013-04-23 00:00:00 Temperatura 26.8 del 22-04-2013 15:00, Mayor que la Máxima 26.4 23-04-2013 00:00 26.8 -- 26.4 2014-09-22 18:01:00
2 2013-04-24 00:00:00 Temperatura 28.5 del 23-04-2013 14:00, Mayor que la Máxima 28.2 24-04-2013 00:00 28.5 -- 28.2 2014-09-22 18:03:00
2 2013-04-27 00:00:00 Temperatura 19.5 del 26-04-2013 15:00, Mayor que la Máxima 19.0 27-04-2013 00:00 19.5 -- 19.0 2014-09-22 18:12:00
2 2013-04-28 00:00:00 Temperatura 23.3 del 27-04-2013 16:00, Mayor que la Máxima 21.8 28-04-2013 00:00 23.3 -- 21.8 2014-09-22 18:14:00
2 2013-04-29 00:00:00 Temperatura 23.9 del 28-04-2013 16:00, Mayor que la Máxima 23.4 29-04-2013 00:00 23.9 -- 23.4 2014-09-22 18:17:00
2 2013-05-01 00:00:00 Temperatura 20.3 del 30-04-2013 15:00, Mayor que la Máxima 20.2 01-05-2013 00:00 20.3 -- 20.2 2014-09-22 18:21:00
2 2013-05-04 00:00:00 Temperatura 20.9 del 03-05-2013 15:00, Mayor que la Máxima 20.4 04-05-2013 00:00 20.9 -- 20.4 2014-09-22 19:25:00
2 2013-05-05 00:00:00 Temperatura 26.3 del 04-05-2013 16:00, Mayor que la Máxima 25.6 05-05-2013 00:00 26.3 -- 25.6 2014-09-22 19:31:00
2 2013-05-06 00:00:00 Temperatura 31.6 del 05-05-2013 15:00, Mayor que la Máxima 30.7 06-05-2013 00:00 31.6 -- 30.7 2014-09-22 19:31:00
2 2013-05-07 00:00:00 Temperatura 29.8 del 06-05-2013 15:00, Mayor que la Máxima 29.0 07-05-2013 00:00 29.8 -- 29.0 2014-09-22 19:33:00
2 2013-05-08 00:00:00 Temperatura 26.8 del 07-05-2013 15:00, Mayor que la Máxima 21.2 08-05-2013 00:00 26.8 -- 21.2 2014-09-22 19:36:00
2 2013-05-09 00:00:00 Temperatura 20.5 del 08-05-2013 15:00, Mayor que la Máxima 20.2 09-05-2013 00:00 20.5 -- 20.2 2014-09-22 19:38:00
2 2013-05-11 00:00:00 Temperatura 21.2 del 10-05-2013 14:00, Mayor que la Máxima 20.8 11-05-2013 00:00 21.2 -- 20.8 2014-09-22 19:43:00
2 2013-05-12 00:00:00 Temperatura 22.3 del 11-05-2013 15:00, Mayor que la Máxima 21.8 12-05-2013 00:00 22.3 -- 21.8 2014-09-22 19:47:00
2 2013-05-13 00:00:00 Temperatura 19.4 del 12-05-2013 14:00, Mayor que la Máxima 19.2 13-05-2013 00:00 19.4 -- 19.2 2014-09-22 19:49:00
2 2013-05-16 00:00:00 Temperatura 22.5 del 15-05-2013 15:00, Mayor que la Máxima 22.0 16-05-2013 00:00 22.5 -- 22.0 2014-09-22 19:56:00
2 2013-05-17 00:00:00 Temperatura 21.9 del 16-05-2013 15:00, Mayor que la Máxima 21.6 17-05-2013 00:00 21.9 -- 21.6 2014-09-22 19:57:00
2 2013-05-18 00:00:00 Temperatura 15.4 del 17-05-2013 15:00, Mayor que la Máxima 15.2 18-05-2013 00:00 15.4 -- 15.2 2014-09-22 19:59:00
2 2013-05-19 00:00:00 Temperatura 16.6 del 18-05-2013 15:00, Mayor que la Máxima 16.2 19-05-2013 00:00 16.6 -- 16.2 2014-09-23 13:15:00
2 2013-05-21 00:00:00 Temperatura 23.3 del 20-05-2013 15:00, Mayor que la Máxima 23.0 21-05-2013 00:00 23.3 -- 23.0 2014-09-23 13:26:00
2 2013-05-22 00:00:00 Temperatura 21.4 del 21-05-2013 16:00, Mayor que la Máxima 21.2 22-05-2013 00:00 21.4 -- 21.2 2014-09-23 13:29:00
2 2013-05-23 00:00:00 Temperatura 18.9 del 22-05-2013 14:00, Mayor que la Máxima 18.4 23-05-2013 00:00 18.9 -- 18.4 2014-09-23 13:31:00
2 2013-05-30 00:00:00 Temperatura 19.4 del 29-05-2013 15:00, Mayor que la Máxima 18.4 30-05-2013 00:00 19.4 -- 18.4 2014-09-23 13:57:00
2 2013-05-31 00:00:00 Temperatura 19.5 del 30-05-2013 14:00, Mayor que la Máxima 18.8 31-05-2013 00:00 19.5 -- 18.8 2014-09-23 13:59:00
2 2013-06-02 00:00:00 Temperatura 21.0 del 01-06-2013 15:00, Mayor que la Máxima 20.6 02-06-2013 00:00 21.0 -- 20.6 2014-09-23 14:05:00
2 2013-06-03 00:00:00 Temperatura 24.3 del 02-06-2013 15:00, Mayor que la Máxima 23.8 03-06-2013 00:00 24.3 -- 23.8 2014-09-23 14:07:00
2 2013-06-04 00:00:00 Temperatura 27.1 del 03-06-2013 15:00, Mayor que la Máxima 25.6 04-06-2013 00:00 27.1 -- 25.6 2014-09-23 14:09:00
2 2013-06-05 00:00:00 Temperatura 28.5 del 04-06-2013 15:00, Mayor que la Máxima 27.4 05-06-2013 00:00 28.5 -- 27.4 2014-09-23 14:44:00
2 2013-06-06 00:00:00 Temperatura 27.9 del 05-06-2013 15:00, Mayor que la Máxima 27.0 06-06-2013 00:00 27.9 -- 27.0 2014-09-23 14:51:00
2 2013-06-07 00:00:00 Temperatura 30.1 del 06-06-2013 15:00, Mayor que la Máxima 28.4 07-06-2013 00:00 30.1 -- 28.4 2014-09-23 14:53:00
2 2013-06-08 00:00:00 Temperatura 22.7 del 07-06-2013 15:00, Mayor que la Máxima 21.8 08-06-2013 00:00 22.7 -- 21.8 2014-09-23 15:26:00
2 2013-06-10 00:00:00 Temperatura 24.1 del 09-06-2013 15:00, Mayor que la Máxima 23.7 10-06-2013 00:00 24.1 -- 23.7 2014-09-23 15:32:00
2 2013-06-11 00:00:00 Temperatura 24.8 del 10-06-2013 14:00, Mayor que la Máxima 24.0 11-06-2013 00:00 24.8 -- 24.0 2014-09-23 15:34:00
2 2013-06-12 00:00:00 Temperatura 20.1 del 11-06-2013 14:00, Mayor que la Máxima 20.0 12-06-2013 00:00 20.1 -- 20.0 2014-09-23 15:36:00
2 2013-06-13 00:00:00 Temperatura 16.7 del 12-06-2013 13:00, Mayor que la Máxima 16.6 13-06-2013 00:00 16.7 -- 16.6 2014-09-23 15:37:00
2 2013-06-14 00:00:00 Temperatura 23.4 del 13-06-2013 14:00, Mayor que la Máxima 22.6 14-06-2013 00:00 23.4 -- 22.6 2014-09-23 15:39:00
2 2013-06-16 00:00:00 Temperatura 18.4 del 15-06-2013 14:00, Mayor que la Máxima 18.2 16-06-2013 00:00 18.4 -- 18.2 2014-09-23 15:41:00
2 2013-06-17 00:00:00 Temperatura 17.4 del 16-06-2013 15:00, Mayor que la Máxima 16.1 17-06-2013 00:00 17.4 -- 16.1 2014-09-23 15:43:00
2 2013-06-18 00:00:00 Temperatura 17.3 del 17-06-2013 15:00, Mayor que la Máxima 16.8 18-06-2013 00:00 17.3 -- 16.8 2014-09-23 15:44:00
2 2013-06-19 00:00:00 Temperatura 18.6 del 18-06-2013 14:00, Mayor que la Máxima 17.6 19-06-2013 00:00 18.6 -- 17.6 2014-09-23 15:46:00
2 2013-06-20 00:00:00 Temperatura 16.3 del 19-06-2013 15:00, Mayor que la Máxima 16.1 20-06-2013 00:00 16.3 -- 16.1 2014-09-23 15:47:00
2 2013-06-21 00:00:00 Temperatura 15.9 del 20-06-2013 15:00, Mayor que la Máxima 15.2 21-06-2013 00:00 15.9 -- 15.2 2014-09-23 15:49:00
2 2013-06-22 00:00:00 Temperatura 16.7 del 21-06-2013 15:00, Mayor que la Máxima 16.2 22-06-2013 00:00 16.7 -- 16.2 2014-09-23 15:51:00
2 2013-06-25 00:00:00 Temperatura 17.2 del 24-06-2013 14:00, Mayor que la Máxima 16.4 25-06-2013 00:00 17.2 -- 16.4 2014-09-23 15:55:00
2 2013-06-30 00:00:00 Temperatura 13.9 del 29-06-2013 14:00, Mayor que la Máxima 13.8 30-06-2013 00:00 13.9 -- 13.8 2014-09-23 17:42:00
2 2013-07-01 00:00:00 Temperatura 18.3 del 30-06-2013 15:00, Mayor que la Máxima 17.2 01-07-2013 00:00 18.3 -- 17.2 2014-09-23 17:44:00
2 2013-07-02 00:00:00 Temperatura 20.5 del 01-07-2013 15:00, Mayor que la Máxima 19.8 02-07-2013 00:00 20.5 -- 19.8 2014-09-23 18:00:00
2 2013-07-03 00:00:00 Temperatura 20.2 del 02-07-2013 15:00, Mayor que la Máxima 18.6 03-07-2013 00:00 20.2 -- 18.6 2014-09-23 18:02:00
2 2013-07-04 00:00:00 Temperatura 12.6 del 03-07-2013 16:00, Mayor que la Máxima 12.4 04-07-2013 00:00 12.6 -- 12.4 2014-09-23 18:03:00
2 2013-07-05 00:00:00 Temperatura 13.4 del 04-07-2013 15:00, Mayor que la Máxima 13.0 05-07-2013 00:00 13.4 -- 13.0 2014-09-23 18:05:00
2 2013-07-07 00:00:00 Temperatura 13.4 del 06-07-2013 14:00, Mayor que la Máxima 13.0 07-07-2013 00:00 13.4 -- 13.0 2014-09-23 18:09:00
2 2013-07-08 00:00:00 Temperatura 16.7 del 07-07-2013 14:00, Mayor que la Máxima 16.0 08-07-2013 00:00 16.7 -- 16.0 2014-09-23 18:11:00
2 2013-07-10 00:00:00 Temperatura 16.6 del 09-07-2013 15:00, Mayor que la Máxima 16.4 10-07-2013 00:00 16.6 -- 16.4 2014-09-23 18:15:00
2 2013-07-12 00:00:00 Temperatura 20.3 del 11-07-2013 16:00, Mayor que la Máxima 19.8 12-07-2013 00:00 20.3 -- 19.8 2014-09-23 18:18:00
2 2013-07-13 00:00:00 Temperatura 20.3 del 12-07-2013 16:00, Mayor que la Máxima 19.8 13-07-2013 00:00 20.3 -- 19.8 2014-09-23 18:19:00
2 2013-07-14 00:00:00 Temperatura 22.7 del 13-07-2013 16:00, Mayor que la Máxima 21.8 14-07-2013 00:00 22.7 -- 21.8 2014-09-23 18:22:00
2 2013-07-15 00:00:00 Temperatura 25.0 del 14-07-2013 15:00, Mayor que la Máxima 24.6 15-07-2013 00:00 25.0 -- 24.6 2014-09-23 18:25:00
2 2013-07-16 00:00:00 Temperatura 28.5 del 15-07-2013 15:00, Mayor que la Máxima 28.2 16-07-2013 00:00 28.5 -- 28.2 2014-09-23 18:26:00
2 2013-07-17 00:00:00 Temperatura 27.8 del 16-07-2013 15:00, Mayor que la Máxima 27.0 17-07-2013 00:00 27.8 -- 27.0 2014-09-23 18:27:00
2 2013-07-18 00:00:00 Temperatura 23.8 del 17-07-2013 16:00, Mayor que la Máxima 23.4 18-07-2013 00:00 23.8 -- 23.4 2014-09-23 18:28:00
2 2013-07-19 00:00:00 Temperatura 18.1 del 18-07-2013 14:00, Mayor que la Máxima 17.9 19-07-2013 00:00 18.1 -- 17.9 2014-09-23 18:29:00
2 2013-07-20 00:00:00 Temperatura 10.6 del 19-07-2013 16:00, Mayor que la Máxima 10.4 20-07-2013 00:00 10.6 -- 10.4 2014-09-23 18:59:00
2 2013-07-22 00:00:00 Temperatura 12.1 del 21-07-2013 16:00, Mayor que la Máxima 11.7 22-07-2013 00:00 12.1 -- 11.7 2014-09-23 19:04:00
2 2013-07-23 00:00:00 Temperatura 17.0 del 22-07-2013 16:00, Mayor que la Máxima 16.6 23-07-2013 00:00 17.0 -- 16.6 2014-09-23 19:07:00
2 2013-07-24 00:00:00 Temperatura 23.1 del 23-07-2013 15:00, Mayor que la Máxima 22.2 24-07-2013 00:00 23.1 -- 22.2 2014-09-23 19:08:00
2 2013-07-25 00:00:00 Temperatura 27.7 del 24-07-2013 14:00, Mayor que la Máxima 26.0 25-07-2013 00:00 27.7 -- 26.0 2014-09-23 19:11:00
2 2013-07-28 00:00:00 Temperatura 21.4 del 27-07-2013 13:00, Mayor que la Máxima 20.6 28-07-2013 00:00 21.4 -- 20.6 2014-09-23 19:15:00
2 2013-07-31 00:00:00 Temperatura 16.0 del 30-07-2013 14:00, Mayor que la Máxima 13.8 31-07-2013 00:00 16.0 -- 13.8 2018-10-25 14:49:00
2 2013-08-01 00:00:00 Temperatura 18.9 del 31-07-2013 14:00, Mayor que la Máxima 18.2 01-08-2013 00:00 18.9 -- 18.2 2014-09-23 19:55:00
2 2013-08-02 00:00:00 Temperatura 14.9 del 01-08-2013 13:00, Mayor que la Máxima 14.8 02-08-2013 00:00 14.9 -- 14.8 2014-09-23 19:57:00
2 2013-08-03 00:00:00 Temperatura 18.6 del 02-08-2013 14:00, Mayor que la Máxima 18.2 03-08-2013 00:00 18.6 -- 18.2 2014-09-23 19:59:00
2 2013-08-04 00:00:00 Temperatura 14.3 del 03-08-2013 14:00, Mayor que la Máxima 14.2 04-08-2013 00:00 14.3 -- 14.2 2014-09-23 20:23:00
2 2013-08-05 00:00:00 Temperatura 21.7 del 04-08-2013 14:00, Mayor que la Máxima 21.0 05-08-2013 00:00 21.7 -- 21.0 2014-09-23 20:24:00
2 2013-08-06 00:00:00 Temperatura 26.4 del 05-08-2013 15:00, Mayor que la Máxima 25.4 06-08-2013 00:00 26.4 -- 25.4 2014-09-23 20:29:00
2 2013-08-09 00:00:00 Temperatura 12.9 del 08-08-2013 15:00, Mayor que la Máxima 12.2 09-08-2013 00:00 12.9 -- 12.2 2014-09-24 12:54:00
2 2013-08-10 00:00:00 Temperatura 18.3 del 09-08-2013 15:00, Mayor que la Máxima 17.2 10-08-2013 00:00 18.3 -- 17.2 2014-09-24 12:56:00
2 2013-08-11 00:00:00 Temperatura 22.5 del 10-08-2013 14:00, Mayor que la Máxima 22.2 11-08-2013 00:00 22.5 -- 22.2 2014-09-24 12:57:00
2 2013-08-12 00:00:00 Temperatura 16.3 del 11-08-2013 13:00, Mayor que la Máxima 16.0 12-08-2013 00:00 16.3 -- 16.0 2014-09-24 12:58:00
2 2013-08-13 00:00:00 Temperatura 16.1 del 12-08-2013 13:00, Mayor que la Máxima 15.6 13-08-2013 00:00 16.1 -- 15.6 2014-09-24 13:00:00
2 2013-08-14 00:00:00 Temperatura 21.3 del 13-08-2013 16:00, Mayor que la Máxima 20.0 14-08-2013 00:00 21.3 -- 20.0 2014-09-24 13:02:00
2 2013-08-15 00:00:00 Temperatura 29.3 del 14-08-2013 15:00, Mayor que la Máxima 28.2 15-08-2013 00:00 29.3 -- 28.2 2014-09-24 13:03:00
2 2013-08-17 00:00:00 Temperatura 28.4 del 16-08-2013 14:00, Mayor que la Máxima 27.6 17-08-2013 00:00 28.4 -- 27.6 2014-09-24 13:28:00
2 2013-08-18 00:00:00 Temperatura 29.2 del 17-08-2013 14:00, Mayor que la Máxima 28.4 18-08-2013 00:00 29.2 -- 28.4 2014-09-24 13:33:00
2 2013-08-20 00:00:00 Temperatura 23.3 del 19-08-2013 14:00, Mayor que la Máxima 22.3 20-08-2013 00:00 23.3 -- 22.3 2014-09-24 13:36:00
2 2013-08-21 00:00:00 Temperatura 21.1 del 20-08-2013 14:00, Mayor que la Máxima 20.4 21-08-2013 00:00 21.1 -- 20.4 2014-09-24 13:37:00
2 2013-08-22 00:00:00 Temperatura 22.0 del 21-08-2013 13:00, Mayor que la Máxima 21.0 22-08-2013 00:00 22.0 -- 21.0 2014-09-24 13:38:00
2 2013-08-24 00:00:00 Temperatura 14.3 del 23-08-2013 13:00, Mayor que la Máxima 14.2 24-08-2013 00:00 14.3 -- 14.2 2014-09-24 13:57:00
2 2013-08-25 00:00:00 Temperatura 18.2 del 24-08-2013 15:00, Mayor que la Máxima 17.6 25-08-2013 00:00 18.2 -- 17.6 2014-09-24 13:59:00
2 2013-08-27 00:00:00 Temperatura 22.5 del 26-08-2013 14:00, Mayor que la Máxima 21.6 27-08-2013 00:00 22.5 -- 21.6 2014-09-24 14:03:00
2 2013-08-28 00:00:00 Temperatura 27.7 del 27-08-2013 14:00, Mayor que la Máxima 27.4 28-08-2013 00:00 27.7 -- 27.4 2014-09-24 14:04:00
2 2013-08-29 00:00:00 Temperatura 34.6 del 28-08-2013 14:00, Mayor que la Máxima 33.8 29-08-2013 00:00 34.6 -- 33.8 2014-09-24 14:06:00
2 2013-09-01 00:00:00 Temperatura 22.7 del 31-08-2013 14:00, Mayor que la Máxima 22.2 01-09-2013 00:00 22.7 -- 22.2 2014-09-24 14:19:00
2 2013-09-02 00:00:00 Temperatura 18.8 del 01-09-2013 16:00, Mayor que la Máxima 18.2 02-09-2013 00:00 18.8 -- 18.2 2014-09-24 14:33:00
2 2013-09-03 00:00:00 Temperatura 19.3 del 02-09-2013 13:00, Mayor que la Máxima 19.0 03-09-2013 00:00 19.3 -- 19.0 2014-09-24 14:35:00
2 2013-09-04 00:00:00 Temperatura 27.8 del 03-09-2013 13:00, Mayor que la Máxima 27.2 04-09-2013 00:00 27.8 -- 27.2 2014-09-24 14:36:00
2 2013-09-06 00:00:00 Temperatura 23.5 del 05-09-2013 15:00, Mayor que la Máxima 21.2 06-09-2013 00:00 23.5 -- 21.2 2014-09-24 14:40:00
2 2013-09-09 00:00:00 Temperatura 31.5 del 08-09-2013 14:00, Mayor que la Máxima 31.2 09-09-2013 00:00 31.5 -- 31.2 2014-09-24 14:46:00
2 2013-09-11 00:00:00 Temperatura 24.0 del 10-09-2013 14:00, Mayor que la Máxima 23.8 11-09-2013 00:00 24.0 -- 23.8 2014-09-24 15:27:00
2 2013-09-12 00:00:00 Temperatura 19.8 del 11-09-2013 13:00, Mayor que la Máxima 19.4 12-09-2013 00:00 19.8 -- 19.4 2014-09-24 15:29:00
2 2013-09-13 00:00:00 Temperatura 18.5 del 12-09-2013 13:00, Mayor que la Máxima 17.8 13-09-2013 00:00 18.5 -- 17.8 2014-09-24 15:30:00
2 2013-09-14 00:00:00 Temperatura 18.6 del 13-09-2013 13:00, Mayor que la Máxima 18.4 14-09-2013 00:00 18.6 -- 18.4 2014-09-24 15:39:00
2 2013-09-15 00:00:00 Temperatura 14.1 del 14-09-2013 16:00, Mayor que la Máxima 13.8 15-09-2013 00:00 14.1 -- 13.8 2014-09-24 15:47:00
2 2013-09-16 00:00:00 Temperatura 15.5 del 15-09-2013 15:00, Mayor que la Máxima 15.0 16-09-2013 00:00 15.5 -- 15.0 2014-09-24 17:23:00
2 2013-09-18 00:00:00 Temperatura 19.6 del 17-09-2013 15:00, Mayor que la Máxima 19.2 18-09-2013 00:00 19.6 -- 19.2 2014-09-24 17:25:00
2 2013-09-19 00:00:00 Temperatura 23.4 del 18-09-2013 15:00, Mayor que la Máxima 23.0 19-09-2013 00:00 23.4 -- 23.0 2014-09-24 17:26:00
2 2013-09-20 00:00:00 Temperatura 21.8 del 19-09-2013 13:00, Mayor que la Máxima 20.4 20-09-2013 00:00 21.8 -- 20.4 2014-09-24 17:28:00
2 2013-09-21 00:00:00 Temperatura 18.8 del 20-09-2013 15:00, Mayor que la Máxima 18.4 21-09-2013 00:00 18.8 -- 18.4 2014-09-24 17:29:00
2 2013-09-22 00:00:00 Temperatura 14.9 del 21-09-2013 15:00, Mayor que la Máxima 14.6 22-09-2013 00:00 14.9 -- 14.6 2014-09-24 17:30:00
2 2013-09-23 00:00:00 Temperatura 23.0 del 22-09-2013 16:00, Mayor que la Máxima 22.4 23-09-2013 00:00 23.0 -- 22.4 2014-09-24 17:35:00
2 2013-09-25 00:00:00 Temperatura 26.4 del 24-09-2013 13:00, Mayor que la Máxima 26.0 25-09-2013 00:00 26.4 -- 26.0 2014-09-24 17:37:00
2 2013-09-27 00:00:00 Temperatura 14.6 del 26-09-2013 14:00, Mayor que la Máxima 14.2 27-09-2013 00:00 14.6 -- 14.2 2014-09-24 17:42:00
2 2013-09-29 00:00:00 Temperatura 21.0 del 28-09-2013 15:00, Mayor que la Máxima 20.4 29-09-2013 00:00 21.0 -- 20.4 2014-09-24 17:44:00
2 2013-09-30 00:00:00 Temperatura 21.9 del 29-09-2013 15:00, Mayor que la Máxima 21.4 30-09-2013 00:00 21.9 -- 21.4 2014-09-24 17:45:00
2 2013-10-01 00:00:00 Temperatura 19.7 del 30-09-2013 13:00, Mayor que la Máxima 19.4 01-10-2013 00:00 19.7 -- 19.4 2014-09-24 17:49:00
2 2013-10-02 00:00:00 Temperatura 22.7 del 01-10-2013 15:00, Mayor que la Máxima 22.2 02-10-2013 00:00 22.7 -- 22.2 2014-09-24 17:51:00
2 2013-10-03 00:00:00 Temperatura 19.2 del 02-10-2013 14:00, Mayor que la Máxima 18.6 03-10-2013 00:00 19.2 -- 18.6 2014-09-24 18:41:00
2 2013-10-04 00:00:00 Temperatura 23.4 del 03-10-2013 16:00, Mayor que la Máxima 22.6 04-10-2013 00:00 23.4 -- 22.6 2014-09-24 18:42:00
2 2013-10-05 00:00:00 Temperatura 29.7 del 04-10-2013 15:00, Mayor que la Máxima 29.0 05-10-2013 00:00 29.7 -- 29.0 2014-09-24 18:45:00
2 2013-10-08 00:00:00 Temperatura 26.3 del 07-10-2013 14:00, Mayor que la Máxima 26.0 08-10-2013 00:00 26.3 -- 26.0 2014-09-24 18:49:00
2 2013-10-14 00:00:00 Temperatura 25.7 del 13-10-2013 13:00, Mayor que la Máxima 25.2 14-10-2013 00:00 25.7 -- 25.2 2014-09-24 18:56:00
2 2013-10-15 00:00:00 Temperatura 28.3 del 14-10-2013 15:00, Mayor que la Máxima 27.9 15-10-2013 00:00 28.3 -- 27.9 2014-09-24 18:58:00
2 2013-10-16 00:00:00 Temperatura 26.6 del 15-10-2013 13:00, Mayor que la Máxima 26.4 16-10-2013 00:00 26.6 -- 26.4 2014-09-24 19:01:00
2 2013-10-17 00:00:00 Temperatura 26.8 del 16-10-2013 15:00, Mayor que la Máxima 26.6 17-10-2013 00:00 26.8 -- 26.6 2014-09-24 19:04:00
2 2013-10-18 00:00:00 Temperatura 29.1 del 17-10-2013 16:00, Mayor que la Máxima 28.7 18-10-2013 00:00 29.1 -- 28.7 2014-09-24 19:07:00
2 2013-10-19 00:00:00 Temperatura 26.2 del 18-10-2013 15:00, Mayor que la Máxima 26.0 19-10-2013 00:00 26.2 -- 26.0 2014-09-24 19:09:00
2 2013-10-20 00:00:00 Temperatura 19.6 del 19-10-2013 14:00, Mayor que la Máxima 19.4 20-10-2013 00:00 19.6 -- 19.4 2014-09-24 19:12:00
2 2013-10-21 00:00:00 Temperatura 22.1 del 20-10-2013 14:00, Mayor que la Máxima 21.2 21-10-2013 00:00 22.1 -- 21.2 2014-09-24 19:40:00
2 2013-10-22 00:00:00 Temperatura 25.8 del 21-10-2013 15:00, Mayor que la Máxima 24.8 22-10-2013 00:00 25.8 -- 24.8 2014-09-24 19:43:00
2 2013-10-27 00:00:00 Temperatura 31.1 del 26-10-2013 17:00, Mayor que la Máxima 30.2 27-10-2013 00:00 31.1 -- 30.2 2014-09-25 12:23:00
2 2013-10-28 00:00:00 Temperatura 30.2 del 27-10-2013 15:00, Mayor que la Máxima 29.8 28-10-2013 00:00 30.2 -- 29.8 2014-09-25 13:07:00
2 2013-10-29 00:00:00 Temperatura 18.5 del 28-10-2013 17:00, Mayor que la Máxima 18.0 29-10-2013 00:00 18.5 -- 18.0 2014-09-25 13:10:00
2 2013-10-30 00:00:00 Temperatura 23.7 del 29-10-2013 14:00, Mayor que la Máxima 23.6 30-10-2013 00:00 23.7 -- 23.6 2014-09-25 13:11:00
2 2013-11-01 00:00:00 Temperatura 17.4 del 31-10-2013 16:00, Mayor que la Máxima 17.0 01-11-2013 00:00 17.4 -- 17.0 2014-09-25 13:16:00
2 2013-11-02 00:00:00 Temperatura 23.4 del 01-11-2013 15:00, Mayor que la Máxima 22.8 02-11-2013 00:00 23.4 -- 22.8 2014-09-25 13:23:00
2 2013-11-03 00:00:00 Temperatura 28.5 del 02-11-2013 16:00, Mayor que la Máxima 27.8 03-11-2013 00:00 28.5 -- 27.8 2014-09-25 13:24:00
2 2013-11-05 00:00:00 Temperatura 23.6 del 04-11-2013 15:00, Mayor que la Máxima 23.2 05-11-2013 00:00 23.6 -- 23.2 2014-09-25 13:57:00
2 2013-11-06 00:00:00 Temperatura 22.6 del 05-11-2013 14:00, Mayor que la Máxima 22.4 06-11-2013 00:00 22.6 -- 22.4 2014-09-25 13:58:00
2 2013-11-07 00:00:00 Temperatura 23.7 del 06-11-2013 15:00, Mayor que la Máxima 23.2 07-11-2013 00:00 23.7 -- 23.2 2014-09-25 14:02:00
2 2013-11-08 00:00:00 Temperatura 29.0 del 07-11-2013 16:00, Mayor que la Máxima 28.6 08-11-2013 00:00 29.0 -- 28.6 2014-09-25 14:54:00
2 2013-11-10 00:00:00 Temperatura 22.4 del 09-11-2013 14:00, Mayor que la Máxima 22.2 10-11-2013 00:00 22.4 -- 22.2 2014-09-25 15:02:00
2 2013-11-11 00:00:00 Temperatura 21.7 del 10-11-2013 17:00, Mayor que la Máxima 21.4 11-11-2013 00:00 21.7 -- 21.4 2014-09-25 15:04:00
2 2013-11-12 00:00:00 Temperatura 29.7 del 11-11-2013 16:00, Mayor que la Máxima 29.0 12-11-2013 00:00 29.7 -- 29.0 2014-09-25 15:05:00
2 2013-11-13 00:00:00 Temperatura 33.4 del 12-11-2013 16:00, Mayor que la Máxima 33.0 13-11-2013 00:00 33.4 -- 33.0 2014-09-25 15:06:00
2 2013-11-14 00:00:00 Temperatura 34.2 del 13-11-2013 15:00, Mayor que la Máxima 34.0 14-11-2013 00:00 34.2 -- 34.0 2014-09-25 15:07:00
2 2013-11-15 00:00:00 Temperatura 26.0 del 14-11-2013 16:00, Mayor que la Máxima 25.6 15-11-2013 00:00 26.0 -- 25.6 2014-09-25 15:09:00
2 2013-11-16 00:00:00 Temperatura 34.2 del 15-11-2013 17:00, Mayor que la Máxima 33.4 16-11-2013 00:00 34.2 -- 33.4 2014-09-25 15:10:00
2 2013-11-17 00:00:00 Temperatura 30.8 del 16-11-2013 14:00, Mayor que la Máxima 30.6 17-11-2013 00:00 30.8 -- 30.6 2014-09-25 15:12:00
2 2013-11-19 00:00:00 Temperatura 22.8 del 18-11-2013 16:00, Mayor que la Máxima 22.0 19-11-2013 00:00 22.8 -- 22.0 2014-09-25 15:15:00
2 2013-11-20 00:00:00 Temperatura 23.6 del 19-11-2013 17:00, Mayor que la Máxima 23.2 20-11-2013 00:00 23.6 -- 23.2 2014-09-25 15:16:00
2 2013-11-21 00:00:00 Temperatura 28.4 del 20-11-2013 15:00, Mayor que la Máxima 28.2 21-11-2013 00:00 28.4 -- 28.2 2014-09-25 15:17:00
2 2013-11-22 00:00:00 Temperatura 35.5 del 21-11-2013 16:00, Mayor que la Máxima 35.2 22-11-2013 00:00 35.5 -- 35.2 2014-09-25 15:22:00
2 2013-11-23 00:00:00 Temperatura 29.4 del 22-11-2013 16:00, Mayor que la Máxima 29.0 23-11-2013 00:00 29.4 -- 29.0 2014-09-25 15:24:00
2 2013-11-24 00:00:00 Temperatura 24.9 del 23-11-2013 14:00, Mayor que la Máxima 24.8 24-11-2013 00:00 24.9 -- 24.8 2014-09-25 15:28:00
2 2013-11-25 00:00:00 Temperatura 26.7 del 24-11-2013 16:00, Mayor que la Máxima 26.0 25-11-2013 00:00 26.7 -- 26.0 2014-09-25 15:32:00
2 2013-11-26 00:00:00 Temperatura 25.3 del 25-11-2013 16:00, Mayor que la Máxima 24.6 26-11-2013 00:00 25.3 -- 24.6 2014-09-25 15:34:00
2 2013-11-27 00:00:00 Temperatura 21.8 del 26-11-2013 16:00, Mayor que la Máxima 21.4 27-11-2013 00:00 21.8 -- 21.4 2014-09-25 15:35:00
2 2013-11-28 00:00:00 Temperatura 28.2 del 27-11-2013 16:00, Mayor que la Máxima 27.6 28-11-2013 00:00 28.2 -- 27.6 2014-09-25 15:36:00
2 2013-11-29 00:00:00 Temperatura 26.5 del 28-11-2013 16:00, Mayor que la Máxima 25.8 29-11-2013 00:00 26.5 -- 25.8 2014-09-25 15:37:00
2 2013-11-30 00:00:00 Temperatura 29.5 del 29-11-2013 15:00, Mayor que la Máxima 28.8 30-11-2013 00:00 29.5 -- 28.8 2014-09-25 15:38:00
2 2013-12-01 00:00:00 Temperatura 28.1 del 30-11-2013 16:00, Mayor que la Máxima 27.2 01-12-2013 00:00 28.1 -- 27.2 2014-09-25 15:40:00
2 2013-12-02 00:00:00 Temperatura 30.1 del 01-12-2013 17:00, Mayor que la Máxima 29.6 02-12-2013 00:00 30.1 -- 29.6 2014-09-25 16:26:00
2 2013-12-05 00:00:00 Temperatura 27.0 del 04-12-2013 15:00, Mayor que la Máxima 26.6 05-12-2013 00:00 27.0 -- 26.6 2014-09-25 16:31:00
2 2013-12-06 00:00:00 Temperatura 27.4 del 05-12-2013 17:00, Mayor que la Máxima 27.2 06-12-2013 00:00 27.4 -- 27.2 2014-09-25 16:32:00
2 2013-12-07 00:00:00 Temperatura 29.1 del 06-12-2013 15:00, Mayor que la Máxima 28.6 07-12-2013 00:00 29.1 -- 28.6 2014-09-25 16:34:00
2 2013-12-09 00:00:00 Temperatura 20.9 del 08-12-2013 16:00, Mayor que la Máxima 20.8 09-12-2013 00:00 20.9 -- 20.8 2014-09-25 16:36:00
2 2013-12-10 00:00:00 Temperatura 30.6 del 09-12-2013 16:00, Mayor que la Máxima 30.0 10-12-2013 00:00 30.6 -- 30.0 2014-09-25 16:38:00
2 2013-12-11 00:00:00 Temperatura 31.7 del 10-12-2013 14:00, Mayor que la Máxima 31.2 11-12-2013 00:00 31.7 -- 31.2 2014-09-25 16:43:00
2 2013-12-13 00:00:00 Temperatura 27.1 del 12-12-2013 15:00, Mayor que la Máxima 26.7 13-12-2013 00:00 27.1 -- 26.7 2014-09-25 16:46:00
2 2013-12-14 00:00:00 Temperatura 26.1 del 13-12-2013 15:00, Mayor que la Máxima 25.8 14-12-2013 00:00 26.1 -- 25.8 2014-09-25 16:47:00
2 2013-12-15 00:00:00 Temperatura 27.3 del 14-12-2013 16:00, Mayor que la Máxima 27.0 15-12-2013 00:00 27.3 -- 27.0 2014-09-25 16:50:00
2 2013-12-16 00:00:00 Temperatura 26.5 del 15-12-2013 16:00, Mayor que la Máxima 26.0 16-12-2013 00:00 26.5 -- 26.0 2014-09-25 16:51:00
2 2013-12-19 00:00:00 Temperatura 25.6 del 18-12-2013 14:00, Mayor que la Máxima 25.0 19-12-2013 00:00 25.6 -- 25.0 2014-09-25 18:00:00
2 2013-12-21 00:00:00 Temperatura 22.2 del 20-12-2013 16:00, Mayor que la Máxima 21.8 21-12-2013 00:00 22.2 -- 21.8 2014-09-25 18:02:00
2 2013-12-23 00:00:00 Temperatura 24.8 del 22-12-2013 16:00, Mayor que la Máxima 24.4 23-12-2013 00:00 24.8 -- 24.4 2014-09-25 18:15:00
2 2013-12-25 00:00:00 Temperatura 23.4 del 24-12-2013 16:00, Mayor que la Máxima 23.2 25-12-2013 00:00 23.4 -- 23.2 2014-09-25 18:18:00
2 2013-12-28 00:00:00 Temperatura 33.7 del 27-12-2013 16:00, Mayor que la Máxima 33.2 28-12-2013 00:00 33.7 -- 33.2 2014-09-25 20:09:00
2 2013-12-31 00:00:00 Temperatura 33.1 del 30-12-2013 16:00, Mayor que la Máxima 32.8 31-12-2013 00:00 33.1 -- 32.8 2014-09-26 12:13:00
2 2002-02-27 12:00:00 Temperatura 11.4 del 27-02-2002 12:00, Menor que la Mínima 13.2 27-02-2002 12:00 11.4 -- 13.2 2023-12-28 23:42:00
2 2002-04-12 12:00:00 Temperatura 10.6 del 12-04-2002 12:00, Menor que la Mínima 11.8 12-04-2002 12:00 10.6 -- 11.8 2023-12-28 23:42:00
2 2002-08-18 12:00:00 Temperatura 9.2 del 18-08-2002 12:00, Menor que la Mínima 9.5 18-08-2002 12:00 9.2 -- 9.5 2023-12-28 23:42:00
2 2002-09-14 12:00:00 Temperatura 11.1 del 14-09-2002 12:00, Menor que la Mínima 11.8 14-09-2002 12:00 11.1 -- 11.8 2023-12-28 23:42:00
2 2003-06-03 12:00:00 Temperatura 2.0 del 03-06-2003 12:00, Menor que la Mínima 2.2 03-06-2003 12:00 2.0 -- 2.2 2023-12-28 23:43:00
2 2003-06-05 12:00:00 Temperatura 10.6 del 05-06-2003 12:00, Menor que la Mínima 10.7 05-06-2003 12:00 10.6 -- 10.7 2023-12-28 23:43:00
2 2003-06-11 12:00:00 Temperatura 11.1 del 11-06-2003 12:00, Menor que la Mínima 11.3 11-06-2003 12:00 11.1 -- 11.3 2023-12-28 23:43:00
2 2003-06-16 12:00:00 Temperatura 0.6 del 16-06-2003 12:00, Menor que la Mínima 1.4 16-06-2003 12:00 0.6 -- 1.4 2023-12-28 23:43:00
2 2003-08-30 12:00:00 Temperatura 8.8 del 30-08-2003 12:00, Menor que la Mínima 9.1 30-08-2003 12:00 8.8 -- 9.1 2023-12-28 23:43:00
2 2003-09-06 12:00:00 Temperatura 9.4 del 06-09-2003 12:00, Menor que la Mínima 9.6 06-09-2003 12:00 9.4 -- 9.6 2023-12-28 23:43:00
2 2003-11-11 12:00:00 Temperatura 14.4 del 11-11-2003 12:00, Menor que la Mínima 18.2 11-11-2003 12:00 14.4 -- 18.2 2023-12-28 23:43:00
2 2004-01-30 12:00:00 Temperatura 12.8 del 30-01-2004 12:00, Menor que la Mínima 13.1 30-01-2004 12:00 12.8 -- 13.1 2023-12-28 23:43:00
2 2004-05-05 12:00:00 Temperatura 2.8 del 05-05-2004 12:00, Menor que la Mínima 3.0 05-05-2004 12:00 2.8 -- 3.0 2023-12-28 23:44:00
2 2004-05-06 12:00:00 Temperatura 2.8 del 06-05-2004 12:00, Menor que la Mínima 3.8 06-05-2004 12:00 2.8 -- 3.8 2023-12-28 23:44:00
2 2004-05-15 12:00:00 Temperatura -0.2 del 15-05-2004 12:00, Menor que la Mínima -0.1 15-05-2004 12:00 -0.2 -- -0.1 2023-12-28 23:44:00
2 2004-06-28 12:00:00 Temperatura 0.6 del 28-06-2004 12:00, Menor que la Mínima 0.8 28-06-2004 12:00 0.6 -- 0.8 2023-12-28 23:44:00
2 2004-08-06 12:00:00 Temperatura -0.6 del 06-08-2004 12:00, Menor que la Mínima -0.5 06-08-2004 12:00 -0.6 -- -0.5 2023-12-28 23:44:00
2 2005-03-11 12:00:00 Temperatura 14.2 del 11-03-2005 12:00, Menor que la Mínima 19.0 11-03-2005 12:00 14.2 -- 19.0 2023-12-28 23:44:00
2 2005-05-01 12:00:00 Temperatura 7.2 del 01-05-2005 12:00, Menor que la Mínima 7.4 01-05-2005 12:00 7.2 -- 7.4 2023-12-28 23:44:00
2 2005-05-02 12:00:00 Temperatura 7.4 del 02-05-2005 12:00, Menor que la Mínima 8.1 02-05-2005 12:00 7.4 -- 8.1 2023-12-28 23:44:00
2 2005-05-08 12:00:00 Temperatura 10.7 del 08-05-2005 12:00, Menor que la Mínima 10.9 08-05-2005 12:00 10.7 -- 10.9 2023-12-28 23:44:00
2 2005-05-21 12:00:00 Temperatura -1.2 del 21-05-2005 12:00, Menor que la Mínima -1.1 21-05-2005 12:00 -1.2 -- -1.1 2023-12-28 23:44:00
2 2005-06-11 12:00:00 Temperatura 9.3 del 11-06-2005 12:00, Menor que la Mínima 9.4 11-06-2005 12:00 9.3 -- 9.4 2023-12-28 23:44:00
2 2005-06-15 12:00:00 Temperatura 8.0 del 15-06-2005 12:00, Menor que la Mínima 8.2 15-06-2005 12:00 8.0 -- 8.2 2023-12-28 23:44:00
2 2005-06-27 12:00:00 Temperatura 10.9 del 27-06-2005 12:00, Menor que la Mínima 11.0 27-06-2005 12:00 10.9 -- 11.0 2023-12-28 23:44:00
2 2005-08-03 12:00:00 Temperatura 11.2 del 03-08-2005 12:00, Menor que la Mínima 11.4 03-08-2005 12:00 11.2 -- 11.4 2023-12-28 23:45:00
2 2005-08-05 12:00:00 Temperatura 4.2 del 05-08-2005 12:00, Menor que la Mínima 4.6 05-08-2005 12:00 4.2 -- 4.6 2023-12-28 23:45:00
2 2005-08-15 12:00:00 Temperatura 10.3 del 15-08-2005 12:00, Menor que la Mínima 10.6 15-08-2005 12:00 10.3 -- 10.6 2023-12-28 23:45:00
2 2005-08-28 12:00:00 Temperatura 10.8 del 28-08-2005 12:00, Menor que la Mínima 11.0 28-08-2005 12:00 10.8 -- 11.0 2023-12-28 23:45:00
2 2005-09-10 12:00:00 Temperatura 6.8 del 10-09-2005 12:00, Menor que la Mínima 7.1 10-09-2005 12:00 6.8 -- 7.1 2023-12-28 23:45:00
2 2005-10-02 12:00:00 Temperatura 9.2 del 02-10-2005 12:00, Menor que la Mínima 9.4 02-10-2005 12:00 9.2 -- 9.4 2023-12-28 23:45:00
2 2005-11-10 12:00:00 Temperatura 6.2 del 10-11-2005 12:00, Menor que la Mínima 9.2 10-11-2005 12:00 6.2 -- 9.2 2023-12-28 23:45:00
2 2013-01-01 12:00:00 Temperatura 10.7 del 01-01-2013 06:00, Menor que la Mínima 11.0 01-01-2013 12:00 10.7 -- 11.0 2014-09-12 14:16:00
2 2013-01-01 12:00:00 Temperatura 10.7 del 01-01-2013 06:00, Menor que la Mínima 11.0 01-01-2013 12:00 10.7 -- 11.0 2014-09-12 14:16:00
2 2013-01-04 12:00:00 Temperatura 8.9 del 04-01-2013 06:00, Menor que la Mínima 9.0 04-01-2013 12:00 8.9 -- 9.0 2014-09-12 15:27:00
2 2013-01-05 12:00:00 Temperatura 10.4 del 05-01-2013 02:00, Menor que la Mínima 10.6 05-01-2013 12:00 10.4 -- 10.6 2014-09-12 15:56:00
2 2013-01-06 12:00:00 Temperatura 11.4 del 06-01-2013 04:00, Menor que la Mínima 11.8 06-01-2013 12:00 11.4 -- 11.8 2014-09-12 17:42:00
2 2013-01-07 12:00:00 Temperatura 10.2 del 07-01-2013 05:00, Menor que la Mínima 10.3 07-01-2013 12:00 10.2 -- 10.3 2014-09-12 17:47:00
2 2013-01-09 12:00:00 Temperatura 12.9 del 09-01-2013 05:00, Menor que la Mínima 13.2 09-01-2013 12:00 12.9 -- 13.2 2014-09-12 18:14:00
2 2013-01-10 12:00:00 Temperatura 13.5 del 10-01-2013 06:00, Menor que la Mínima 13.8 10-01-2013 12:00 13.5 -- 13.8 2014-09-12 18:35:00
2 2013-01-11 12:00:00 Temperatura 13.0 del 11-01-2013 06:00, Menor que la Mínima 13.3 11-01-2013 12:00 13.0 -- 13.3 2014-09-12 18:35:00
2 2013-01-13 12:00:00 Temperatura 15.7 del 13-01-2013 03:00, Menor que la Mínima 15.8 13-01-2013 12:00 15.7 -- 15.8 2014-09-12 18:40:00
2 2013-01-15 12:00:00 Temperatura 12.5 del 15-01-2013 06:00, Menor que la Mínima 12.7 15-01-2013 12:00 12.5 -- 12.7 2014-09-12 18:54:00
2 2013-01-16 12:00:00 Temperatura 12.1 del 16-01-2013 06:00, Menor que la Mínima 12.4 16-01-2013 12:00 12.1 -- 12.4 2014-09-12 18:56:00
2 2013-01-18 12:00:00 Temperatura 14.8 del 18-01-2013 04:00, Menor que la Mínima 14.9 18-01-2013 12:00 14.8 -- 14.9 2014-09-12 19:08:00
2 2013-01-19 12:00:00 Temperatura 12.8 del 19-01-2013 05:00, Menor que la Mínima 13.0 19-01-2013 12:00 12.8 -- 13.0 2014-09-12 19:11:00
2 2013-01-21 12:00:00 Temperatura 13.9 del 21-01-2013 06:00, Menor que la Mínima 14.0 21-01-2013 12:00 13.9 -- 14.0 2014-09-15 14:21:00
2 2013-01-22 12:00:00 Temperatura 13.0 del 22-01-2013 06:00, Menor que la Mínima 13.1 22-01-2013 12:00 13.0 -- 13.1 2014-09-15 14:23:00
2 2013-01-23 12:00:00 Temperatura 12.7 del 23-01-2013 04:00, Menor que la Mínima 12.8 23-01-2013 12:00 12.7 -- 12.8 2014-09-15 14:26:00
2 2013-01-27 12:00:00 Temperatura 11.2 del 27-01-2013 06:00, Menor que la Mínima 11.5 27-01-2013 12:00 11.2 -- 11.5 2014-09-15 15:04:00
2 2013-01-29 12:00:00 Temperatura 10.1 del 29-01-2013 06:00, Menor que la Mínima 10.3 29-01-2013 12:00 10.1 -- 10.3 2014-09-15 15:50:00
2 2013-01-30 12:00:00 Temperatura 11.2 del 30-01-2013 06:00, Menor que la Mínima 11.6 30-01-2013 12:00 11.2 -- 11.6 2014-09-15 15:54:00
2 2013-01-31 12:00:00 Temperatura 11.0 del 31-01-2013 06:00, Menor que la Mínima 14.4 31-01-2013 12:00 11.0 -- 14.4 2018-10-25 14:47:00
2 2013-02-01 12:00:00 Temperatura 12.7 del 01-02-2013 04:00, Menor que la Mínima 15.6 01-02-2013 12:00 12.7 -- 15.6 2018-10-25 14:48:00
2 2013-02-02 12:00:00 Temperatura 12.0 del 02-02-2013 05:00, Menor que la Mínima 12.2 02-02-2013 12:00 12.0 -- 12.2 2014-09-15 16:03:00
2 2013-02-03 12:00:00 Temperatura 13.1 del 03-02-2013 06:00, Menor que la Mínima 13.3 03-02-2013 12:00 13.1 -- 13.3 2014-09-15 16:08:00
2 2013-02-04 12:00:00 Temperatura 12.8 del 04-02-2013 06:00, Menor que la Mínima 14.1 04-02-2013 12:00 12.8 -- 14.1 2014-09-15 16:10:00
2 2013-02-05 12:00:00 Temperatura 11.9 del 05-02-2013 06:00, Menor que la Mínima 12.2 05-02-2013 12:00 11.9 -- 12.2 2014-09-15 16:12:00
2 2013-02-07 12:00:00 Temperatura 16.3 del 07-02-2013 06:00, Menor que la Mínima 16.4 07-02-2013 12:00 16.3 -- 16.4 2014-09-15 16:20:00
2 2013-02-08 12:00:00 Temperatura 15.7 del 08-02-2013 07:00, Menor que la Mínima 15.8 08-02-2013 12:00 15.7 -- 15.8 2014-09-15 16:24:00
2 2013-02-09 12:00:00 Temperatura 17.3 del 09-02-2013 05:00, Menor que la Mínima 17.6 09-02-2013 12:00 17.3 -- 17.6 2014-09-15 16:26:00
2 2013-02-10 12:00:00 Temperatura 13.9 del 10-02-2013 06:00, Menor que la Mínima 14.0 10-02-2013 12:00 13.9 -- 14.0 2014-09-15 18:04:00
2 2013-02-11 12:00:00 Temperatura 12.5 del 11-02-2013 06:00, Menor que la Mínima 12.8 11-02-2013 12:00 12.5 -- 12.8 2014-09-15 18:06:00
2 2013-02-13 12:00:00 Temperatura 13.2 del 13-02-2013 05:00, Menor que la Mínima 13.4 13-02-2013 12:00 13.2 -- 13.4 2014-09-15 18:10:00
2 2013-02-14 12:00:00 Temperatura 12.8 del 14-02-2013 06:00, Menor que la Mínima 13.0 14-02-2013 12:00 12.8 -- 13.0 2014-09-15 18:26:00
2 2013-02-15 12:00:00 Temperatura 12.3 del 15-02-2013 06:00, Menor que la Mínima 12.5 15-02-2013 12:00 12.3 -- 12.5 2014-09-15 18:28:00
2 2013-02-18 12:00:00 Temperatura 9.0 del 18-02-2013 06:00, Menor que la Mínima 9.3 18-02-2013 12:00 9.0 -- 9.3 2014-09-15 18:40:00
2 2013-02-19 12:00:00 Temperatura 5.9 del 19-02-2013 06:00, Menor que la Mínima 6.0 19-02-2013 12:00 5.9 -- 6.0 2014-09-15 18:42:00
2 2013-02-20 12:00:00 Temperatura 7.0 del 20-02-2013 07:00, Menor que la Mínima 7.1 20-02-2013 12:00 7.0 -- 7.1 2014-09-15 18:44:00
2 2013-02-22 12:00:00 Temperatura 10.4 del 22-02-2013 06:00, Menor que la Mínima 10.8 22-02-2013 12:00 10.4 -- 10.8 2014-09-15 19:55:00
2 2013-02-26 12:00:00 Temperatura 10.0 del 26-02-2013 07:00, Menor que la Mínima 10.1 26-02-2013 12:00 10.0 -- 10.1 2014-09-15 20:07:00
2 2013-02-28 12:00:00 Temperatura 9.7 del 28-02-2013 07:00, Menor que la Mínima 9.8 28-02-2013 12:00 9.7 -- 9.8 2014-09-15 20:10:00
2 2013-03-01 12:00:00 Temperatura 7.4 del 01-03-2013 07:00, Menor que la Mínima 7.6 01-03-2013 12:00 7.4 -- 7.6 2014-09-17 12:59:00
2 2013-03-02 12:00:00 Temperatura 6.0 del 02-03-2013 06:00, Menor que la Mínima 6.2 02-03-2013 12:00 6.0 -- 6.2 2014-09-17 13:02:00
2 2013-03-05 12:00:00 Temperatura 8.1 del 05-03-2013 07:00, Menor que la Mínima 8.6 05-03-2013 12:00 8.1 -- 8.6 2014-09-17 13:14:00
2 2013-03-15 12:00:00 Temperatura 5.5 del 15-03-2013 05:00, Menor que la Mínima 5.6 15-03-2013 12:00 5.5 -- 5.6 2014-09-17 14:24:00
2 2013-03-16 12:00:00 Temperatura 7.3 del 16-03-2013 06:00, Menor que la Mínima 7.7 16-03-2013 12:00 7.3 -- 7.7 2014-09-22 12:58:00
2 2013-03-17 12:00:00 Temperatura 6.3 del 17-03-2013 06:00, Menor que la Mínima 6.4 17-03-2013 12:00 6.3 -- 6.4 2014-09-22 13:00:00
2 2013-03-18 12:00:00 Temperatura 7.8 del 18-03-2013 05:00, Menor que la Mínima 8.3 18-03-2013 12:00 7.8 -- 8.3 2014-09-22 13:05:00
2 2013-03-19 12:00:00 Temperatura 7.4 del 19-03-2013 05:00, Menor que la Mínima 8.1 19-03-2013 12:00 7.4 -- 8.1 2014-09-22 13:09:00
2 2013-03-20 12:00:00 Temperatura 8.1 del 20-03-2013 05:00, Menor que la Mínima 9.5 20-03-2013 12:00 8.1 -- 9.5 2014-09-22 13:11:00
2 2013-03-21 12:00:00 Temperatura 6.7 del 21-03-2013 07:00, Menor que la Mínima 8.0 21-03-2013 12:00 6.7 -- 8.0 2014-09-22 13:14:00
2 2013-03-22 12:00:00 Temperatura 7.8 del 22-03-2013 07:00, Menor que la Mínima 8.8 22-03-2013 12:00 7.8 -- 8.8 2014-09-22 18:27:00
2 2013-03-25 12:00:00 Temperatura 7.8 del 25-03-2013 07:00, Menor que la Mínima 9.0 25-03-2013 12:00 7.8 -- 9.0 2014-09-22 18:46:00
2 2013-03-26 12:00:00 Temperatura 7.9 del 26-03-2013 07:00, Menor que la Mínima 9.1 26-03-2013 12:00 7.9 -- 9.1 2014-09-22 18:54:00
2 2013-03-28 12:00:00 Temperatura 9.2 del 28-03-2013 02:00, Menor que la Mínima 11.2 28-03-2013 12:00 9.2 -- 11.2 2014-09-22 19:01:00
2 2013-04-06 12:00:00 Temperatura 6.0 del 06-04-2013 07:00, Menor que la Mínima 6.2 06-04-2013 12:00 6.0 -- 6.2 2014-09-22 14:41:00
2 2013-04-08 12:00:00 Temperatura 4.9 del 08-04-2013 07:00, Menor que la Mínima 5.1 08-04-2013 12:00 4.9 -- 5.1 2014-09-22 14:46:00
2 2013-04-18 12:00:00 Temperatura 3.1 del 18-04-2013 07:00, Menor que la Mínima 3.4 18-04-2013 12:00 3.1 -- 3.4 2014-09-22 16:04:00
2 2013-04-20 12:00:00 Temperatura 7.9 del 20-04-2013 02:00, Menor que la Mínima 8.0 20-04-2013 12:00 7.9 -- 8.0 2014-09-22 17:51:00
2 2013-04-28 12:00:00 Temperatura 4.5 del 28-04-2013 03:00, Menor que la Mínima 4.6 28-04-2013 12:00 4.5 -- 4.6 2014-09-22 18:16:00
2 2013-05-02 12:00:00 Temperatura 7.3 del 02-05-2013 06:00, Menor que la Mínima 7.4 02-05-2013 12:00 7.3 -- 7.4 2014-09-22 19:23:00
2 2013-05-12 12:00:00 Temperatura 5.7 del 12-05-2013 06:00, Menor que la Mínima 6.5 12-05-2013 12:00 5.7 -- 6.5 2014-09-22 19:49:00
2 2013-05-20 12:00:00 Temperatura 3.8 del 20-05-2013 08:00, Menor que la Mínima 3.9 20-05-2013 12:00 3.8 -- 3.9 2014-09-23 13:24:00
2 2013-05-28 12:00:00 Temperatura 5.9 del 28-05-2013 01:00, Menor que la Mínima 6.0 28-05-2013 12:00 5.9 -- 6.0 2014-09-23 13:55:00
2 2013-06-02 12:00:00 Temperatura 6.1 del 02-06-2013 01:00, Menor que la Mínima 6.2 02-06-2013 12:00 6.1 -- 6.2 2014-09-23 14:07:00
2 2013-06-07 12:00:00 Temperatura 3.9 del 07-06-2013 08:00, Menor que la Mínima 4.0 07-06-2013 12:00 3.9 -- 4.0 2014-09-23 15:27:00
2 2013-06-17 12:00:00 Temperatura 2.3 del 17-06-2013 08:00, Menor que la Mínima 2.6 17-06-2013 12:00 2.3 -- 2.6 2014-09-23 15:44:00
2 2013-06-19 12:00:00 Temperatura -3.1 del 19-06-2013 08:00, Menor que la Mínima -3.0 19-06-2013 12:00 -3.1 -- -3.0 2014-09-23 15:47:00
2 2013-06-25 12:00:00 Temperatura 2.7 del 25-06-2013 10:00, Menor que la Mínima 3.0 25-06-2013 12:00 2.7 -- 3.0 2014-09-23 15:57:00
2 2013-07-07 12:00:00 Temperatura 1.8 del 07-07-2013 04:00, Menor que la Mínima 2.0 07-07-2013 12:00 1.8 -- 2.0 2014-09-23 18:11:00
2 2013-07-14 12:00:00 Temperatura 1.5 del 14-07-2013 06:00, Menor que la Mínima 3.6 14-07-2013 12:00 1.5 -- 3.6 2018-10-25 14:48:00
2 2013-07-15 12:00:00 Temperatura 2.1 del 15-07-2013 07:00, Menor que la Mínima 2.4 15-07-2013 12:00 2.1 -- 2.4 2014-09-23 18:26:00
2 2013-07-29 12:00:00 Temperatura 2.8 del 29-07-2013 05:00, Menor que la Mínima 3.0 29-07-2013 12:00 2.8 -- 3.0 2014-09-23 19:18:00
2 2013-08-03 12:00:00 Temperatura 3.2 del 03-08-2013 06:00, Menor que la Mínima 3.4 03-08-2013 12:00 3.2 -- 3.4 2014-09-23 19:59:00
2 2013-08-04 12:00:00 Temperatura 4.5 del 04-08-2013 07:00, Menor que la Mínima 4.6 04-08-2013 12:00 4.5 -- 4.6 2014-09-23 20:24:00
2 2013-08-06 12:00:00 Temperatura 3.8 del 06-08-2013 02:00, Menor que la Mínima 4.8 06-08-2013 12:00 3.8 -- 4.8 2014-09-23 20:29:00
2 2013-08-11 12:00:00 Temperatura 0.6 del 11-08-2013 06:00, Menor que la Mínima 0.9 11-08-2013 12:00 0.6 -- 0.9 2014-09-24 12:58:00
2 2013-08-15 12:00:00 Temperatura 0.5 del 15-08-2013 06:00, Menor que la Mínima 0.6 15-08-2013 12:00 0.5 -- 0.6 2014-09-24 13:04:00
2 2013-08-17 12:00:00 Temperatura 1.7 del 17-08-2013 07:00, Menor que la Mínima 1.8 17-08-2013 12:00 1.7 -- 1.8 2014-09-24 13:33:00
2 2013-08-18 12:00:00 Temperatura 1.5 del 18-08-2013 07:00, Menor que la Mínima 1.6 18-08-2013 12:00 1.5 -- 1.6 2014-09-24 13:34:00
2 2013-08-22 12:00:00 Temperatura 2.7 del 22-08-2013 04:00, Menor que la Mínima 2.8 22-08-2013 12:00 2.7 -- 2.8 2014-09-24 13:41:00
2 2013-09-01 12:00:00 Temperatura 6.4 del 01-09-2013 01:00, Menor que la Mínima 6.6 01-09-2013 12:00 6.4 -- 6.6 2014-09-24 14:33:00
2 2013-09-06 12:00:00 Temperatura 11.9 del 06-09-2013 06:00, Menor que la Mínima 12.0 06-09-2013 12:00 11.9 -- 12.0 2014-09-24 14:41:00
2 2013-09-08 12:00:00 Temperatura 8.9 del 08-09-2013 06:00, Menor que la Mínima 9.0 08-09-2013 12:00 8.9 -- 9.0 2014-09-24 14:46:00
2 2013-09-09 12:00:00 Temperatura 10.8 del 09-09-2013 06:00, Menor que la Mínima 11.0 09-09-2013 12:00 10.8 -- 11.0 2014-09-24 15:25:00
2 2013-09-15 12:00:00 Temperatura 1.9 del 15-09-2013 05:00, Menor que la Mínima 2.0 15-09-2013 12:00 1.9 -- 2.0 2014-09-24 17:23:00
2 2013-09-24 12:00:00 Temperatura 1.5 del 24-09-2013 06:00, Menor que la Mínima 1.6 24-09-2013 12:00 1.5 -- 1.6 2014-09-24 17:37:00
2 2013-09-28 12:00:00 Temperatura -1.6 del 28-09-2013 07:00, Menor que la Mínima -1.4 28-09-2013 12:00 -1.6 -- -1.4 2014-09-24 17:44:00
2 2013-09-29 12:00:00 Temperatura -0.5 del 29-09-2013 05:00, Menor que la Mínima -0.4 29-09-2013 12:00 -0.5 -- -0.4 2014-09-24 17:45:00
2 2013-10-02 12:00:00 Temperatura 3.3 del 02-10-2013 06:00, Menor que la Mínima 3.4 02-10-2013 12:00 3.3 -- 3.4 2014-09-24 17:51:00
2 2013-10-04 12:00:00 Temperatura 2.8 del 04-10-2013 06:00, Menor que la Mínima 3.0 04-10-2013 12:00 2.8 -- 3.0 2014-09-24 18:45:00
2 2013-10-11 12:00:00 Temperatura 5.3 del 11-10-2013 06:00, Menor que la Mínima 5.4 11-10-2013 12:00 5.3 -- 5.4 2014-09-24 18:54:00
2 2013-10-20 12:00:00 Temperatura 3.3 del 20-10-2013 07:00, Menor que la Mínima 3.4 20-10-2013 12:00 3.3 -- 3.4 2014-09-24 19:41:00
2 2013-10-26 12:00:00 Temperatura 2.8 del 26-10-2013 07:00, Menor que la Mínima 5.0 26-10-2013 12:00 2.8 -- 5.0 2014-09-24 20:15:00
2 2013-10-29 12:00:00 Temperatura 5.3 del 29-10-2013 03:00, Menor que la Mínima 5.4 29-10-2013 12:00 5.3 -- 5.4 2014-09-25 13:11:00
2 2013-11-01 12:00:00 Temperatura 6.9 del 01-11-2013 07:00, Menor que la Mínima 7.0 01-11-2013 12:00 6.9 -- 7.0 2014-09-25 13:23:00
2 2013-11-08 12:00:00 Temperatura 6.3 del 08-11-2013 06:00, Menor que la Mínima 6.4 08-11-2013 12:00 6.3 -- 6.4 2014-09-25 15:00:00
2 2013-11-17 12:00:00 Temperatura 8.8 del 17-11-2013 03:00, Menor que la Mínima 8.9 17-11-2013 12:00 8.8 -- 8.9 2014-09-25 15:13:00
2 2013-11-22 12:00:00 Temperatura 9.0 del 22-11-2013 07:00, Menor que la Mínima 9.1 22-11-2013 12:00 9.0 -- 9.1 2014-09-25 15:23:00
2 2013-11-23 12:00:00 Temperatura 8.6 del 23-11-2013 07:00, Menor que la Mínima 8.8 23-11-2013 12:00 8.6 -- 8.8 2014-09-25 15:28:00
2 2013-11-25 12:00:00 Temperatura 6.1 del 25-11-2013 06:00, Menor que la Mínima 6.2 25-11-2013 12:00 6.1 -- 6.2 2014-09-25 15:34:00
2 2013-11-28 12:00:00 Temperatura 4.8 del 28-11-2013 07:00, Menor que la Mínima 5.0 28-11-2013 12:00 4.8 -- 5.0 2014-09-25 15:37:00
2 2013-12-05 12:00:00 Temperatura 7.7 del 05-12-2013 06:00, Menor que la Mínima 7.8 05-12-2013 12:00 7.7 -- 7.8 2014-09-25 16:32:00
2 2013-12-06 12:00:00 Temperatura 7.7 del 06-12-2013 06:00, Menor que la Mínima 8.0 06-12-2013 12:00 7.7 -- 8.0 2014-09-25 16:34:00
2 2013-12-12 12:00:00 Temperatura 9.4 del 12-12-2013 06:00, Menor que la Mínima 9.5 12-12-2013 12:00 9.4 -- 9.5 2014-09-25 16:46:00
2 2013-12-13 12:00:00 Temperatura 9.9 del 13-12-2013 04:00, Menor que la Mínima 10.0 13-12-2013 12:00 9.9 -- 10.0 2014-09-25 16:47:00
2 2013-12-15 12:00:00 Temperatura 10.3 del 15-12-2013 03:00, Menor que la Mínima 10.4 15-12-2013 12:00 10.3 -- 10.4 2014-09-25 16:51:00
2 2013-12-16 12:00:00 Temperatura 9.5 del 16-12-2013 06:00, Menor que la Mínima 9.8 16-12-2013 12:00 9.5 -- 9.8 2014-09-25 16:53:00
2 2013-12-21 12:00:00 Temperatura 10.1 del 21-12-2013 05:00, Menor que la Mínima 10.3 21-12-2013 12:00 10.1 -- 10.3 2014-09-25 18:14:00
2 2013-12-27 12:00:00 Temperatura 10.3 del 27-12-2013 06:00, Menor que la Mínima 10.4 27-12-2013 12:00 10.3 -- 10.4 2014-09-25 20:09:00
2 2013-12-29 12:00:00 Temperatura 9.9 del 29-12-2013 07:00, Menor que la Mínima 10.0 29-12-2013 12:00 9.9 -- 10.0 2014-09-26 12:08:00
Errores del Nivel 437
Informe generado el 23-02-2024 10:56
Requerimiento: RE6001